<?xml version="1.0" encoding="UTF-8" standalone="no" ?>
<gpx xmlns="http://www.topografix.com/GPX/1/1" xmlns:xsi="http://www.w3.org/2001/XMLSchema-instance" xsi:schemaLocation="http://www.topografix.com/GPX/1/1 http://www.topografix.com/GPX/1/1/gpx.xsd" version="1.1" creator="VisuGPX - https://www.visugpx.com">
  <metadata>
    <name>50 km au sud de Laval </name>
  </metadata>
  <trk>
    <name><![CDATA[Au sud de Laval - Forcé -> Villier-18784480]]></name>
    <trkseg>
      <trkpt lat="48.03408" lon="-0.69978">
        <ele>62</ele>
        <time>2024-04-19T15:14:08Z</time>
      </trkpt>
      <trkpt lat="48.03381" lon="-0.69619">
        <ele>66</ele>
        <time>2024-04-19T15:14:51Z</time>
      </trkpt>
      <trkpt lat="48.0338" lon="-0.69559">
        <ele>68</ele>
        <time>2024-04-19T15:14:58Z</time>
      </trkpt>
      <trkpt lat="48.03383" lon="-0.69536">
        <ele>68</ele>
        <time>2024-04-19T15:15:01Z</time>
      </trkpt>
      <trkpt lat="48.03386" lon="-0.69531">
        <ele>68</ele>
        <time>2024-04-19T15:15:02Z</time>
      </trkpt>
      <trkpt lat="48.03392" lon="-0.69529">
        <ele>68</ele>
        <time>2024-04-19T15:15:03Z</time>
      </trkpt>
      <trkpt lat="48.03408" lon="-0.69512">
        <ele>68</ele>
        <time>2024-04-19T15:15:06Z</time>
      </trkpt>
      <trkpt lat="48.03419" lon="-0.69505">
        <ele>68</ele>
        <time>2024-04-19T15:15:08Z</time>
      </trkpt>
      <trkpt lat="48.03422" lon="-0.695">
        <ele>68</ele>
        <time>2024-04-19T15:15:09Z</time>
      </trkpt>
      <trkpt lat="48.03441" lon="-0.69379">
        <ele>74</ele>
        <time>2024-04-19T15:15:24Z</time>
      </trkpt>
      <trkpt lat="48.03447" lon="-0.69308">
        <ele>77</ele>
        <time>2024-04-19T15:15:33Z</time>
      </trkpt>
      <trkpt lat="48.03454" lon="-0.69268">
        <ele>78</ele>
        <time>2024-04-19T15:15:37Z</time>
      </trkpt>
      <trkpt lat="48.03451" lon="-0.6926">
        <ele>79</ele>
        <time>2024-04-19T15:15:39Z</time>
      </trkpt>
      <trkpt lat="48.03429" lon="-0.69258">
        <ele>79</ele>
        <time>2024-04-19T15:15:42Z</time>
      </trkpt>
      <trkpt lat="48.03428" lon="-0.69255">
        <ele>80</ele>
        <time>2024-04-19T15:15:43Z</time>
      </trkpt>
      <trkpt lat="48.03435" lon="-0.692">
        <ele>81</ele>
        <time>2024-04-19T15:15:50Z</time>
      </trkpt>
      <trkpt lat="48.03439" lon="-0.69125">
        <ele>82</ele>
        <time>2024-04-19T15:15:58Z</time>
      </trkpt>
      <trkpt lat="48.03429" lon="-0.69086">
        <ele>83</ele>
        <time>2024-04-19T15:16:03Z</time>
      </trkpt>
      <trkpt lat="48.03417" lon="-0.68957">
        <ele>82</ele>
        <time>2024-04-19T15:16:19Z</time>
      </trkpt>
      <trkpt lat="48.03403" lon="-0.68895">
        <ele>82</ele>
        <time>2024-04-19T15:16:27Z</time>
      </trkpt>
      <trkpt lat="48.0334" lon="-0.68694">
        <ele>80</ele>
        <time>2024-04-19T15:16:53Z</time>
      </trkpt>
      <trkpt lat="48.03336" lon="-0.6869">
        <ele>80</ele>
        <time>2024-04-19T15:16:54Z</time>
      </trkpt>
      <trkpt lat="48.03331" lon="-0.6869">
        <ele>80</ele>
        <time>2024-04-19T15:16:55Z</time>
      </trkpt>
      <trkpt lat="48.03301" lon="-0.68703">
        <ele>81</ele>
        <time>2024-04-19T15:17:00Z</time>
      </trkpt>
      <trkpt lat="48.0313" lon="-0.68787">
        <ele>84</ele>
        <time>2024-04-19T15:17:32Z</time>
      </trkpt>
      <trkpt lat="48.0309" lon="-0.68814">
        <ele>86</ele>
        <time>2024-04-19T15:17:40Z</time>
      </trkpt>
      <trkpt lat="48.03065" lon="-0.68842">
        <ele>87</ele>
        <time>2024-04-19T15:17:46Z</time>
      </trkpt>
      <trkpt lat="48.03046" lon="-0.68857">
        <ele>88</ele>
        <time>2024-04-19T15:17:50Z</time>
      </trkpt>
      <trkpt lat="48.03009" lon="-0.68876">
        <ele>89</ele>
        <time>2024-04-19T15:17:57Z</time>
      </trkpt>
      <trkpt lat="48.0298" lon="-0.68895">
        <ele>90</ele>
        <time>2024-04-19T15:18:02Z</time>
      </trkpt>
      <trkpt lat="48.02931" lon="-0.68917">
        <ele>91</ele>
        <time>2024-04-19T15:18:11Z</time>
      </trkpt>
      <trkpt lat="48.02912" lon="-0.68913">
        <ele>92</ele>
        <time>2024-04-19T15:18:15Z</time>
      </trkpt>
      <trkpt lat="48.02893" lon="-0.68901">
        <ele>93</ele>
        <time>2024-04-19T15:18:18Z</time>
      </trkpt>
      <trkpt lat="48.02858" lon="-0.68886">
        <ele>94</ele>
        <time>2024-04-19T15:18:25Z</time>
      </trkpt>
      <trkpt lat="48.02812" lon="-0.6886">
        <ele>95</ele>
        <time>2024-04-19T15:18:34Z</time>
      </trkpt>
      <trkpt lat="48.02762" lon="-0.68837">
        <ele>97</ele>
        <time>2024-04-19T15:18:43Z</time>
      </trkpt>
      <trkpt lat="48.0271" lon="-0.68818">
        <ele>98</ele>
        <time>2024-04-19T15:18:52Z</time>
      </trkpt>
      <trkpt lat="48.02679" lon="-0.68801">
        <ele>99</ele>
        <time>2024-04-19T15:18:58Z</time>
      </trkpt>
      <trkpt lat="48.02645" lon="-0.68788">
        <ele>99</ele>
        <time>2024-04-19T15:19:05Z</time>
      </trkpt>
      <trkpt lat="48.02619" lon="-0.68782">
        <ele>99</ele>
        <time>2024-04-19T15:19:09Z</time>
      </trkpt>
      <trkpt lat="48.02574" lon="-0.68767">
        <ele>98</ele>
        <time>2024-04-19T15:19:17Z</time>
      </trkpt>
      <trkpt lat="48.02553" lon="-0.68763">
        <ele>99</ele>
        <time>2024-04-19T15:19:21Z</time>
      </trkpt>
      <trkpt lat="48.02535" lon="-0.68761">
        <ele>99</ele>
        <time>2024-04-19T15:19:24Z</time>
      </trkpt>
      <trkpt lat="48.02512" lon="-0.68762">
        <ele>99</ele>
        <time>2024-04-19T15:19:29Z</time>
      </trkpt>
      <trkpt lat="48.02493" lon="-0.68766">
        <ele>99</ele>
        <time>2024-04-19T15:19:32Z</time>
      </trkpt>
      <trkpt lat="48.02482" lon="-0.68773">
        <ele>98</ele>
        <time>2024-04-19T15:19:34Z</time>
      </trkpt>
      <trkpt lat="48.02458" lon="-0.68798">
        <ele>97</ele>
        <time>2024-04-19T15:19:39Z</time>
      </trkpt>
      <trkpt lat="48.02434" lon="-0.68832">
        <ele>97</ele>
        <time>2024-04-19T15:19:45Z</time>
      </trkpt>
      <trkpt lat="48.02428" lon="-0.68831">
        <ele>97</ele>
        <time>2024-04-19T15:19:46Z</time>
      </trkpt>
      <trkpt lat="48.02423" lon="-0.68828">
        <ele>97</ele>
        <time>2024-04-19T15:19:47Z</time>
      </trkpt>
      <trkpt lat="48.02416" lon="-0.68817">
        <ele>97</ele>
        <time>2024-04-19T15:19:49Z</time>
      </trkpt>
      <trkpt lat="48.02102" lon="-0.68256">
        <ele>85</ele>
        <time>2024-04-19T15:21:16Z</time>
      </trkpt>
      <trkpt lat="48.02085" lon="-0.68231">
        <ele>85</ele>
        <time>2024-04-19T15:21:20Z</time>
      </trkpt>
      <trkpt lat="48.02079" lon="-0.68226">
        <ele>85</ele>
        <time>2024-04-19T15:21:22Z</time>
      </trkpt>
      <trkpt lat="48.02067" lon="-0.68232">
        <ele>85</ele>
        <time>2024-04-19T15:21:24Z</time>
      </trkpt>
      <trkpt lat="48.01976" lon="-0.68308">
        <ele>84</ele>
        <time>2024-04-19T15:21:42Z</time>
      </trkpt>
      <trkpt lat="48.0158" lon="-0.68618">
        <ele>88</ele>
        <time>2024-04-19T15:23:02Z</time>
      </trkpt>
      <trkpt lat="48.01504" lon="-0.68688">
        <ele>91</ele>
        <time>2024-04-19T15:23:18Z</time>
      </trkpt>
      <trkpt lat="48.01474" lon="-0.68722">
        <ele>90</ele>
        <time>2024-04-19T15:23:24Z</time>
      </trkpt>
      <trkpt lat="48.0141" lon="-0.68805">
        <ele>86</ele>
        <time>2024-04-19T15:23:40Z</time>
      </trkpt>
      <trkpt lat="48.01397" lon="-0.68816">
        <ele>85</ele>
        <time>2024-04-19T15:23:42Z</time>
      </trkpt>
      <trkpt lat="48.01344" lon="-0.68843">
        <ele>84</ele>
        <time>2024-04-19T15:23:52Z</time>
      </trkpt>
      <trkpt lat="48.01298" lon="-0.68882">
        <ele>84</ele>
        <time>2024-04-19T15:24:02Z</time>
      </trkpt>
      <trkpt lat="48.01265" lon="-0.68904">
        <ele>85</ele>
        <time>2024-04-19T15:24:08Z</time>
      </trkpt>
      <trkpt lat="48.0113" lon="-0.68961">
        <ele>90</ele>
        <time>2024-04-19T15:24:33Z</time>
      </trkpt>
      <trkpt lat="48.01051" lon="-0.68979">
        <ele>93</ele>
        <time>2024-04-19T15:24:47Z</time>
      </trkpt>
      <trkpt lat="48.01034" lon="-0.68982">
        <ele>93</ele>
        <time>2024-04-19T15:24:50Z</time>
      </trkpt>
      <trkpt lat="48.01026" lon="-0.68981">
        <ele>93</ele>
        <time>2024-04-19T15:24:52Z</time>
      </trkpt>
      <trkpt lat="48.01022" lon="-0.68974">
        <ele>94</ele>
        <time>2024-04-19T15:24:53Z</time>
      </trkpt>
      <trkpt lat="48.01021" lon="-0.68964">
        <ele>94</ele>
        <time>2024-04-19T15:24:54Z</time>
      </trkpt>
      <trkpt lat="48.01027" lon="-0.68913">
        <ele>94</ele>
        <time>2024-04-19T15:25:00Z</time>
      </trkpt>
      <trkpt lat="48.01023" lon="-0.68902">
        <ele>94</ele>
        <time>2024-04-19T15:25:02Z</time>
      </trkpt>
      <trkpt lat="48.01015" lon="-0.68897">
        <ele>94</ele>
        <time>2024-04-19T15:25:03Z</time>
      </trkpt>
      <trkpt lat="48.00993" lon="-0.68896">
        <ele>94</ele>
        <time>2024-04-19T15:25:07Z</time>
      </trkpt>
      <trkpt lat="48.00948" lon="-0.68889">
        <ele>94</ele>
        <time>2024-04-19T15:25:15Z</time>
      </trkpt>
      <trkpt lat="48.00887" lon="-0.68885">
        <ele>95</ele>
        <time>2024-04-19T15:25:26Z</time>
      </trkpt>
      <trkpt lat="48.00796" lon="-0.68869">
        <ele>94</ele>
        <time>2024-04-19T15:25:42Z</time>
      </trkpt>
      <trkpt lat="48.00666" lon="-0.68862">
        <ele>96</ele>
        <time>2024-04-19T15:26:05Z</time>
      </trkpt>
      <trkpt lat="48.0061" lon="-0.68856">
        <ele>98</ele>
        <time>2024-04-19T15:26:15Z</time>
      </trkpt>
      <trkpt lat="48.00585" lon="-0.68859">
        <ele>98</ele>
        <time>2024-04-19T15:26:20Z</time>
      </trkpt>
      <trkpt lat="48.00513" lon="-0.68877">
        <ele>99</ele>
        <time>2024-04-19T15:26:33Z</time>
      </trkpt>
      <trkpt lat="48.00499" lon="-0.68878">
        <ele>99</ele>
        <time>2024-04-19T15:26:35Z</time>
      </trkpt>
      <trkpt lat="48.00491" lon="-0.68872">
        <ele>99</ele>
        <time>2024-04-19T15:26:37Z</time>
      </trkpt>
      <trkpt lat="48.00459" lon="-0.68813">
        <ele>99</ele>
        <time>2024-04-19T15:26:46Z</time>
      </trkpt>
      <trkpt lat="48.00448" lon="-0.688">
        <ele>99</ele>
        <time>2024-04-19T15:26:48Z</time>
      </trkpt>
      <trkpt lat="48.00433" lon="-0.68796">
        <ele>100</ele>
        <time>2024-04-19T15:26:51Z</time>
      </trkpt>
      <trkpt lat="48.00418" lon="-0.68803">
        <ele>100</ele>
        <time>2024-04-19T15:26:54Z</time>
      </trkpt>
      <trkpt lat="48.00355" lon="-0.68823">
        <ele>101</ele>
        <time>2024-04-19T15:27:05Z</time>
      </trkpt>
      <trkpt lat="48.00305" lon="-0.68836">
        <ele>100</ele>
        <time>2024-04-19T15:27:14Z</time>
      </trkpt>
      <trkpt lat="48.00159" lon="-0.68894">
        <ele>97</ele>
        <time>2024-04-19T15:27:41Z</time>
      </trkpt>
      <trkpt lat="48.00108" lon="-0.6892">
        <ele>98</ele>
        <time>2024-04-19T15:27:51Z</time>
      </trkpt>
      <trkpt lat="48.00089" lon="-0.68926">
        <ele>99</ele>
        <time>2024-04-19T15:27:54Z</time>
      </trkpt>
      <trkpt lat="48.00025" lon="-0.68933">
        <ele>99</ele>
        <time>2024-04-19T15:28:06Z</time>
      </trkpt>
      <trkpt lat="47.99939" lon="-0.68951">
        <ele>101</ele>
        <time>2024-04-19T15:28:21Z</time>
      </trkpt>
      <trkpt lat="47.99895" lon="-0.68966">
        <ele>101</ele>
        <time>2024-04-19T15:28:29Z</time>
      </trkpt>
      <trkpt lat="47.99855" lon="-0.68974">
        <ele>102</ele>
        <time>2024-04-19T15:28:36Z</time>
      </trkpt>
      <trkpt lat="47.998" lon="-0.6898">
        <ele>101</ele>
        <time>2024-04-19T15:28:46Z</time>
      </trkpt>
      <trkpt lat="47.99746" lon="-0.68978">
        <ele>101</ele>
        <time>2024-04-19T15:28:56Z</time>
      </trkpt>
      <trkpt lat="47.99736" lon="-0.6897">
        <ele>100</ele>
        <time>2024-04-19T15:28:58Z</time>
      </trkpt>
      <trkpt lat="47.99732" lon="-0.68952">
        <ele>100</ele>
        <time>2024-04-19T15:29:00Z</time>
      </trkpt>
      <trkpt lat="47.99728" lon="-0.68849">
        <ele>100</ele>
        <time>2024-04-19T15:29:12Z</time>
      </trkpt>
      <trkpt lat="47.99722" lon="-0.6877">
        <ele>98</ele>
        <time>2024-04-19T15:29:22Z</time>
      </trkpt>
      <trkpt lat="47.99717" lon="-0.68749">
        <ele>97</ele>
        <time>2024-04-19T15:29:25Z</time>
      </trkpt>
      <trkpt lat="47.99702" lon="-0.68702">
        <ele>96</ele>
        <time>2024-04-19T15:29:31Z</time>
      </trkpt>
      <trkpt lat="47.99662" lon="-0.68599">
        <ele>92</ele>
        <time>2024-04-19T15:29:45Z</time>
      </trkpt>
      <trkpt lat="47.9964" lon="-0.68551">
        <ele>89</ele>
        <time>2024-04-19T15:29:52Z</time>
      </trkpt>
      <trkpt lat="47.99618" lon="-0.68513">
        <ele>87</ele>
        <time>2024-04-19T15:29:58Z</time>
      </trkpt>
      <trkpt lat="47.99596" lon="-0.68467">
        <ele>86</ele>
        <time>2024-04-19T15:30:05Z</time>
      </trkpt>
      <trkpt lat="47.99581" lon="-0.68415">
        <ele>85</ele>
        <time>2024-04-19T15:30:11Z</time>
      </trkpt>
      <trkpt lat="47.99551" lon="-0.68272">
        <ele>77</ele>
        <time>2024-04-19T15:30:29Z</time>
      </trkpt>
      <trkpt lat="47.99539" lon="-0.68145">
        <ele>70</ele>
        <time>2024-04-19T15:30:44Z</time>
      </trkpt>
      <trkpt lat="47.99536" lon="-0.68138">
        <ele>70</ele>
        <time>2024-04-19T15:30:45Z</time>
      </trkpt>
      <trkpt lat="47.99518" lon="-0.68123">
        <ele>69</ele>
        <time>2024-04-19T15:30:49Z</time>
      </trkpt>
      <trkpt lat="47.99476" lon="-0.6808">
        <ele>66</ele>
        <time>2024-04-19T15:30:58Z</time>
      </trkpt>
      <trkpt lat="47.99401" lon="-0.67997">
        <ele>57</ele>
        <time>2024-04-19T15:31:15Z</time>
      </trkpt>
      <trkpt lat="47.99379" lon="-0.67978">
        <ele>56</ele>
        <time>2024-04-19T15:31:19Z</time>
      </trkpt>
      <trkpt lat="47.99359" lon="-0.67968">
        <ele>55</ele>
        <time>2024-04-19T15:31:23Z</time>
      </trkpt>
      <trkpt lat="47.99349" lon="-0.67967">
        <ele>55</ele>
        <time>2024-04-19T15:31:25Z</time>
      </trkpt>
      <trkpt lat="47.99331" lon="-0.67973">
        <ele>55</ele>
        <time>2024-04-19T15:31:28Z</time>
      </trkpt>
      <trkpt lat="47.99306" lon="-0.67994">
        <ele>58</ele>
        <time>2024-04-19T15:31:33Z</time>
      </trkpt>
      <trkpt lat="47.99298" lon="-0.67998">
        <ele>58</ele>
        <time>2024-04-19T15:31:35Z</time>
      </trkpt>
      <trkpt lat="47.99284" lon="-0.67997">
        <ele>60</ele>
        <time>2024-04-19T15:31:37Z</time>
      </trkpt>
      <trkpt lat="47.99279" lon="-0.67991">
        <ele>61</ele>
        <time>2024-04-19T15:31:38Z</time>
      </trkpt>
      <trkpt lat="47.99276" lon="-0.67982">
        <ele>62</ele>
        <time>2024-04-19T15:31:40Z</time>
      </trkpt>
      <trkpt lat="47.99276" lon="-0.67962">
        <ele>63</ele>
        <time>2024-04-19T15:31:42Z</time>
      </trkpt>
      <trkpt lat="47.99281" lon="-0.67944">
        <ele>63</ele>
        <time>2024-04-19T15:31:44Z</time>
      </trkpt>
      <trkpt lat="47.99299" lon="-0.67905">
        <ele>62</ele>
        <time>2024-04-19T15:31:50Z</time>
      </trkpt>
      <trkpt lat="47.99304" lon="-0.67888">
        <ele>61</ele>
        <time>2024-04-19T15:31:52Z</time>
      </trkpt>
      <trkpt lat="47.99307" lon="-0.67872">
        <ele>61</ele>
        <time>2024-04-19T15:31:54Z</time>
      </trkpt>
      <trkpt lat="47.99307" lon="-0.6785">
        <ele>62</ele>
        <time>2024-04-19T15:31:57Z</time>
      </trkpt>
      <trkpt lat="47.99277" lon="-0.67704">
        <ele>68</ele>
        <time>2024-04-19T15:32:15Z</time>
      </trkpt>
      <trkpt lat="47.9927" lon="-0.67683">
        <ele>68</ele>
        <time>2024-04-19T15:32:18Z</time>
      </trkpt>
      <trkpt lat="47.99259" lon="-0.67665">
        <ele>69</ele>
        <time>2024-04-19T15:32:21Z</time>
      </trkpt>
      <trkpt lat="47.9925" lon="-0.67658">
        <ele>70</ele>
        <time>2024-04-19T15:32:22Z</time>
      </trkpt>
      <trkpt lat="47.9924" lon="-0.67656">
        <ele>71</ele>
        <time>2024-04-19T15:32:24Z</time>
      </trkpt>
      <trkpt lat="47.9921" lon="-0.67671">
        <ele>74</ele>
        <time>2024-04-19T15:32:30Z</time>
      </trkpt>
      <trkpt lat="47.99186" lon="-0.67679">
        <ele>76</ele>
        <time>2024-04-19T15:32:34Z</time>
      </trkpt>
      <trkpt lat="47.99143" lon="-0.67688">
        <ele>78</ele>
        <time>2024-04-19T15:32:42Z</time>
      </trkpt>
      <trkpt lat="47.99132" lon="-0.67686">
        <ele>79</ele>
        <time>2024-04-19T15:32:44Z</time>
      </trkpt>
      <trkpt lat="47.99093" lon="-0.67669">
        <ele>81</ele>
        <time>2024-04-19T15:32:51Z</time>
      </trkpt>
      <trkpt lat="47.99079" lon="-0.67667">
        <ele>81</ele>
        <time>2024-04-19T15:32:54Z</time>
      </trkpt>
      <trkpt lat="47.99053" lon="-0.67669">
        <ele>81</ele>
        <time>2024-04-19T15:32:58Z</time>
      </trkpt>
      <trkpt lat="47.99048" lon="-0.67662">
        <ele>82</ele>
        <time>2024-04-19T15:32:59Z</time>
      </trkpt>
      <trkpt lat="47.99043" lon="-0.67638">
        <ele>83</ele>
        <time>2024-04-19T15:33:02Z</time>
      </trkpt>
      <trkpt lat="47.99039" lon="-0.67634">
        <ele>83</ele>
        <time>2024-04-19T15:33:03Z</time>
      </trkpt>
      <trkpt lat="47.99033" lon="-0.67633">
        <ele>83</ele>
        <time>2024-04-19T15:33:04Z</time>
      </trkpt>
      <trkpt lat="47.99014" lon="-0.6765">
        <ele>83</ele>
        <time>2024-04-19T15:33:08Z</time>
      </trkpt>
      <trkpt lat="47.98978" lon="-0.67696">
        <ele>80</ele>
        <time>2024-04-19T15:33:17Z</time>
      </trkpt>
      <trkpt lat="47.98969" lon="-0.67702">
        <ele>79</ele>
        <time>2024-04-19T15:33:19Z</time>
      </trkpt>
      <trkpt lat="47.98965" lon="-0.67702">
        <ele>79</ele>
        <time>2024-04-19T15:33:19Z</time>
      </trkpt>
      <trkpt lat="47.98947" lon="-0.67692">
        <ele>79</ele>
        <time>2024-04-19T15:33:23Z</time>
      </trkpt>
      <trkpt lat="47.98922" lon="-0.67672">
        <ele>78</ele>
        <time>2024-04-19T15:33:28Z</time>
      </trkpt>
      <trkpt lat="47.9891" lon="-0.67666">
        <ele>78</ele>
        <time>2024-04-19T15:33:30Z</time>
      </trkpt>
      <trkpt lat="47.98885" lon="-0.67667">
        <ele>77</ele>
        <time>2024-04-19T15:33:34Z</time>
      </trkpt>
      <trkpt lat="47.98813" lon="-0.67679">
        <ele>74</ele>
        <time>2024-04-19T15:33:47Z</time>
      </trkpt>
      <trkpt lat="47.98769" lon="-0.67662">
        <ele>75</ele>
        <time>2024-04-19T15:33:55Z</time>
      </trkpt>
      <trkpt lat="47.98756" lon="-0.67662">
        <ele>75</ele>
        <time>2024-04-19T15:33:58Z</time>
      </trkpt>
      <trkpt lat="47.98685" lon="-0.67685">
        <ele>78</ele>
        <time>2024-04-19T15:34:11Z</time>
      </trkpt>
      <trkpt lat="47.98671" lon="-0.67701">
        <ele>78</ele>
        <time>2024-04-19T15:34:14Z</time>
      </trkpt>
      <trkpt lat="47.98661" lon="-0.67707">
        <ele>79</ele>
        <time>2024-04-19T15:34:16Z</time>
      </trkpt>
      <trkpt lat="47.98629" lon="-0.67717">
        <ele>79</ele>
        <time>2024-04-19T15:34:22Z</time>
      </trkpt>
      <trkpt lat="47.98539" lon="-0.67717">
        <ele>82</ele>
        <time>2024-04-19T15:34:38Z</time>
      </trkpt>
      <trkpt lat="47.98468" lon="-0.67722">
        <ele>84</ele>
        <time>2024-04-19T15:34:50Z</time>
      </trkpt>
      <trkpt lat="47.98418" lon="-0.67736">
        <ele>85</ele>
        <time>2024-04-19T15:34:59Z</time>
      </trkpt>
      <trkpt lat="47.98413" lon="-0.67744">
        <ele>85</ele>
        <time>2024-04-19T15:35:01Z</time>
      </trkpt>
      <trkpt lat="47.98406" lon="-0.67771">
        <ele>84</ele>
        <time>2024-04-19T15:35:04Z</time>
      </trkpt>
      <trkpt lat="47.98392" lon="-0.67804">
        <ele>83</ele>
        <time>2024-04-19T15:35:09Z</time>
      </trkpt>
      <trkpt lat="47.98332" lon="-0.67913">
        <ele>82</ele>
        <time>2024-04-19T15:35:25Z</time>
      </trkpt>
      <trkpt lat="47.98313" lon="-0.67943">
        <ele>82</ele>
        <time>2024-04-19T15:35:30Z</time>
      </trkpt>
      <trkpt lat="47.98302" lon="-0.67953">
        <ele>81</ele>
        <time>2024-04-19T15:35:33Z</time>
      </trkpt>
      <trkpt lat="47.9817" lon="-0.68006">
        <ele>75</ele>
        <time>2024-04-19T15:35:57Z</time>
      </trkpt>
      <trkpt lat="47.98148" lon="-0.68018">
        <ele>74</ele>
        <time>2024-04-19T15:36:01Z</time>
      </trkpt>
      <trkpt lat="47.98143" lon="-0.68024">
        <ele>74</ele>
        <time>2024-04-19T15:36:02Z</time>
      </trkpt>
      <trkpt lat="47.9814" lon="-0.68041">
        <ele>74</ele>
        <time>2024-04-19T15:36:04Z</time>
      </trkpt>
      <trkpt lat="47.98146" lon="-0.68242">
        <ele>73</ele>
        <time>2024-04-19T15:36:28Z</time>
      </trkpt>
      <trkpt lat="47.98143" lon="-0.68299">
        <ele>72</ele>
        <time>2024-04-19T15:36:35Z</time>
      </trkpt>
      <trkpt lat="47.98141" lon="-0.68305">
        <ele>72</ele>
        <time>2024-04-19T15:36:36Z</time>
      </trkpt>
      <trkpt lat="47.98137" lon="-0.68308">
        <ele>71</ele>
        <time>2024-04-19T15:36:37Z</time>
      </trkpt>
      <trkpt lat="47.98122" lon="-0.683">
        <ele>70</ele>
        <time>2024-04-19T15:36:40Z</time>
      </trkpt>
      <trkpt lat="47.98096" lon="-0.68274">
        <ele>69</ele>
        <time>2024-04-19T15:36:45Z</time>
      </trkpt>
      <trkpt lat="47.98014" lon="-0.68212">
        <ele>66</ele>
        <time>2024-04-19T15:37:01Z</time>
      </trkpt>
      <trkpt lat="47.98" lon="-0.68205">
        <ele>66</ele>
        <time>2024-04-19T15:37:04Z</time>
      </trkpt>
      <trkpt lat="47.97985" lon="-0.68204">
        <ele>65</ele>
        <time>2024-04-19T15:37:07Z</time>
      </trkpt>
      <trkpt lat="47.97958" lon="-0.68197">
        <ele>65</ele>
        <time>2024-04-19T15:37:12Z</time>
      </trkpt>
      <trkpt lat="47.9792" lon="-0.68179">
        <ele>64</ele>
        <time>2024-04-19T15:37:19Z</time>
      </trkpt>
      <trkpt lat="47.97906" lon="-0.68167">
        <ele>64</ele>
        <time>2024-04-19T15:37:22Z</time>
      </trkpt>
      <trkpt lat="47.97883" lon="-0.68137">
        <ele>63</ele>
        <time>2024-04-19T15:37:27Z</time>
      </trkpt>
      <trkpt lat="47.97871" lon="-0.68127">
        <ele>63</ele>
        <time>2024-04-19T15:37:29Z</time>
      </trkpt>
      <trkpt lat="47.9785" lon="-0.68119">
        <ele>63</ele>
        <time>2024-04-19T15:37:33Z</time>
      </trkpt>
      <trkpt lat="47.9782" lon="-0.68112">
        <ele>63</ele>
        <time>2024-04-19T15:37:39Z</time>
      </trkpt>
      <trkpt lat="47.97781" lon="-0.68095">
        <ele>65</ele>
        <time>2024-04-19T15:37:46Z</time>
      </trkpt>
      <trkpt lat="47.97723" lon="-0.68089">
        <ele>66</ele>
        <time>2024-04-19T15:37:56Z</time>
      </trkpt>
      <trkpt lat="47.9769" lon="-0.68079">
        <ele>67</ele>
        <time>2024-04-19T15:38:02Z</time>
      </trkpt>
      <trkpt lat="47.9768" lon="-0.68072">
        <ele>67</ele>
        <time>2024-04-19T15:38:04Z</time>
      </trkpt>
      <trkpt lat="47.9767" lon="-0.68057">
        <ele>67</ele>
        <time>2024-04-19T15:38:07Z</time>
      </trkpt>
      <trkpt lat="47.9766" lon="-0.68052">
        <ele>67</ele>
        <time>2024-04-19T15:38:09Z</time>
      </trkpt>
      <trkpt lat="47.97648" lon="-0.68055">
        <ele>67</ele>
        <time>2024-04-19T15:38:11Z</time>
      </trkpt>
      <trkpt lat="47.97592" lon="-0.6808">
        <ele>68</ele>
        <time>2024-04-19T15:38:21Z</time>
      </trkpt>
      <trkpt lat="47.9738" lon="-0.68187">
        <ele>70</ele>
        <time>2024-04-19T15:39:01Z</time>
      </trkpt>
      <trkpt lat="47.97339" lon="-0.68205">
        <ele>71</ele>
        <time>2024-04-19T15:39:09Z</time>
      </trkpt>
      <trkpt lat="47.97243" lon="-0.68254">
        <ele>72</ele>
        <time>2024-04-19T15:39:27Z</time>
      </trkpt>
      <trkpt lat="47.97202" lon="-0.6828">
        <ele>71</ele>
        <time>2024-04-19T15:39:35Z</time>
      </trkpt>
      <trkpt lat="47.97168" lon="-0.68314">
        <ele>70</ele>
        <time>2024-04-19T15:39:42Z</time>
      </trkpt>
      <trkpt lat="47.97147" lon="-0.6835">
        <ele>70</ele>
        <time>2024-04-19T15:39:48Z</time>
      </trkpt>
      <trkpt lat="47.97126" lon="-0.68408">
        <ele>68</ele>
        <time>2024-04-19T15:39:55Z</time>
      </trkpt>
      <trkpt lat="47.97112" lon="-0.68481">
        <ele>66</ele>
        <time>2024-04-19T15:40:05Z</time>
      </trkpt>
      <trkpt lat="47.97099" lon="-0.68682">
        <ele>61</ele>
        <time>2024-04-19T15:40:29Z</time>
      </trkpt>
      <trkpt lat="47.97103" lon="-0.6873">
        <ele>61</ele>
        <time>2024-04-19T15:40:34Z</time>
      </trkpt>
      <trkpt lat="47.97107" lon="-0.68754">
        <ele>61</ele>
        <time>2024-04-19T15:40:37Z</time>
      </trkpt>
      <trkpt lat="47.9712" lon="-0.68803">
        <ele>62</ele>
        <time>2024-04-19T15:40:44Z</time>
      </trkpt>
      <trkpt lat="47.97159" lon="-0.68924">
        <ele>64</ele>
        <time>2024-04-19T15:41:00Z</time>
      </trkpt>
      <trkpt lat="47.97165" lon="-0.68963">
        <ele>64</ele>
        <time>2024-04-19T15:41:04Z</time>
      </trkpt>
      <trkpt lat="47.9716" lon="-0.68988">
        <ele>63</ele>
        <time>2024-04-19T15:41:07Z</time>
      </trkpt>
      <trkpt lat="47.97152" lon="-0.69002">
        <ele>62</ele>
        <time>2024-04-19T15:41:10Z</time>
      </trkpt>
      <trkpt lat="47.97134" lon="-0.69018">
        <ele>61</ele>
        <time>2024-04-19T15:41:13Z</time>
      </trkpt>
      <trkpt lat="47.97084" lon="-0.69048">
        <ele>58</ele>
        <time>2024-04-19T15:41:23Z</time>
      </trkpt>
      <trkpt lat="47.97011" lon="-0.69086">
        <ele>54</ele>
        <time>2024-04-19T15:41:37Z</time>
      </trkpt>
      <trkpt lat="47.96991" lon="-0.69089">
        <ele>52</ele>
        <time>2024-04-19T15:41:40Z</time>
      </trkpt>
      <trkpt lat="47.96931" lon="-0.69075">
        <ele>50</ele>
        <time>2024-04-19T15:41:51Z</time>
      </trkpt>
      <trkpt lat="47.96814" lon="-0.69035">
        <ele>50</ele>
        <time>2024-04-19T15:42:12Z</time>
      </trkpt>
      <trkpt lat="47.96777" lon="-0.69025">
        <ele>53</ele>
        <time>2024-04-19T15:42:19Z</time>
      </trkpt>
      <trkpt lat="47.9674" lon="-0.69018">
        <ele>55</ele>
        <time>2024-04-19T15:42:26Z</time>
      </trkpt>
      <trkpt lat="47.96713" lon="-0.6902">
        <ele>55</ele>
        <time>2024-04-19T15:42:31Z</time>
      </trkpt>
      <trkpt lat="47.9665" lon="-0.69042">
        <ele>58</ele>
        <time>2024-04-19T15:42:42Z</time>
      </trkpt>
      <trkpt lat="47.96521" lon="-0.69098">
        <ele>67</ele>
        <time>2024-04-19T15:43:06Z</time>
      </trkpt>
      <trkpt lat="47.96461" lon="-0.69119">
        <ele>70</ele>
        <time>2024-04-19T15:43:17Z</time>
      </trkpt>
      <trkpt lat="47.96402" lon="-0.69135">
        <ele>72</ele>
        <time>2024-04-19T15:43:28Z</time>
      </trkpt>
      <trkpt lat="47.96364" lon="-0.69137">
        <ele>74</ele>
        <time>2024-04-19T15:43:34Z</time>
      </trkpt>
      <trkpt lat="47.96345" lon="-0.69134">
        <ele>75</ele>
        <time>2024-04-19T15:43:38Z</time>
      </trkpt>
      <trkpt lat="47.96311" lon="-0.69124">
        <ele>77</ele>
        <time>2024-04-19T15:43:44Z</time>
      </trkpt>
      <trkpt lat="47.96247" lon="-0.69094">
        <ele>79</ele>
        <time>2024-04-19T15:43:56Z</time>
      </trkpt>
      <trkpt lat="47.96185" lon="-0.69039">
        <ele>78</ele>
        <time>2024-04-19T15:44:09Z</time>
      </trkpt>
      <trkpt lat="47.96153" lon="-0.69003">
        <ele>77</ele>
        <time>2024-04-19T15:44:16Z</time>
      </trkpt>
      <trkpt lat="47.96136" lon="-0.6898">
        <ele>76</ele>
        <time>2024-04-19T15:44:20Z</time>
      </trkpt>
      <trkpt lat="47.96103" lon="-0.68922">
        <ele>75</ele>
        <time>2024-04-19T15:44:29Z</time>
      </trkpt>
      <trkpt lat="47.96079" lon="-0.6886">
        <ele>72</ele>
        <time>2024-04-19T15:44:38Z</time>
      </trkpt>
      <trkpt lat="47.96071" lon="-0.68832">
        <ele>72</ele>
        <time>2024-04-19T15:44:41Z</time>
      </trkpt>
      <trkpt lat="47.96054" lon="-0.68758">
        <ele>73</ele>
        <time>2024-04-19T15:44:50Z</time>
      </trkpt>
      <trkpt lat="47.96048" lon="-0.68717">
        <ele>74</ele>
        <time>2024-04-19T15:44:55Z</time>
      </trkpt>
      <trkpt lat="47.96028" lon="-0.68504">
        <ele>77</ele>
        <time>2024-04-19T15:45:21Z</time>
      </trkpt>
      <trkpt lat="47.96019" lon="-0.68433">
        <ele>77</ele>
        <time>2024-04-19T15:45:30Z</time>
      </trkpt>
      <trkpt lat="47.96001" lon="-0.68367">
        <ele>78</ele>
        <time>2024-04-19T15:45:38Z</time>
      </trkpt>
      <trkpt lat="47.95986" lon="-0.68327">
        <ele>78</ele>
        <time>2024-04-19T15:45:44Z</time>
      </trkpt>
      <trkpt lat="47.95964" lon="-0.6828">
        <ele>78</ele>
        <time>2024-04-19T15:45:50Z</time>
      </trkpt>
      <trkpt lat="47.95939" lon="-0.68236">
        <ele>79</ele>
        <time>2024-04-19T15:45:57Z</time>
      </trkpt>
      <trkpt lat="47.9591" lon="-0.68194">
        <ele>79</ele>
        <time>2024-04-19T15:46:05Z</time>
      </trkpt>
      <trkpt lat="47.95864" lon="-0.68139">
        <ele>79</ele>
        <time>2024-04-19T15:46:15Z</time>
      </trkpt>
      <trkpt lat="47.95748" lon="-0.68022">
        <ele>78</ele>
        <time>2024-04-19T15:46:40Z</time>
      </trkpt>
      <trkpt lat="47.95689" lon="-0.67968">
        <ele>78</ele>
        <time>2024-04-19T15:46:52Z</time>
      </trkpt>
      <trkpt lat="47.95613" lon="-0.67914">
        <ele>79</ele>
        <time>2024-04-19T15:47:07Z</time>
      </trkpt>
      <trkpt lat="47.95608" lon="-0.67913">
        <ele>79</ele>
        <time>2024-04-19T15:47:08Z</time>
      </trkpt>
      <trkpt lat="47.95604" lon="-0.67915">
        <ele>79</ele>
        <time>2024-04-19T15:47:09Z</time>
      </trkpt>
      <trkpt lat="47.95588" lon="-0.6793">
        <ele>78</ele>
        <time>2024-04-19T15:47:12Z</time>
      </trkpt>
      <trkpt lat="47.95494" lon="-0.68046">
        <ele>72</ele>
        <time>2024-04-19T15:47:34Z</time>
      </trkpt>
      <trkpt lat="47.95412" lon="-0.68138">
        <ele>71</ele>
        <time>2024-04-19T15:47:52Z</time>
      </trkpt>
      <trkpt lat="47.95361" lon="-0.682">
        <ele>72</ele>
        <time>2024-04-19T15:48:04Z</time>
      </trkpt>
      <trkpt lat="47.95165" lon="-0.68426">
        <ele>78</ele>
        <time>2024-04-19T15:48:48Z</time>
      </trkpt>
      <trkpt lat="47.95102" lon="-0.68503">
        <ele>80</ele>
        <time>2024-04-19T15:49:02Z</time>
      </trkpt>
      <trkpt lat="47.95032" lon="-0.68583">
        <ele>83</ele>
        <time>2024-04-19T15:49:18Z</time>
      </trkpt>
      <trkpt lat="47.95007" lon="-0.68605">
        <ele>82</ele>
        <time>2024-04-19T15:49:23Z</time>
      </trkpt>
      <trkpt lat="47.94991" lon="-0.68611">
        <ele>82</ele>
        <time>2024-04-19T15:49:26Z</time>
      </trkpt>
      <trkpt lat="47.94978" lon="-0.68611">
        <ele>83</ele>
        <time>2024-04-19T15:49:29Z</time>
      </trkpt>
      <trkpt lat="47.94856" lon="-0.6857">
        <ele>89</ele>
        <time>2024-04-19T15:49:51Z</time>
      </trkpt>
      <trkpt lat="47.94826" lon="-0.68564">
        <ele>91</ele>
        <time>2024-04-19T15:49:56Z</time>
      </trkpt>
      <trkpt lat="47.94781" lon="-0.68566">
        <ele>93</ele>
        <time>2024-04-19T15:50:04Z</time>
      </trkpt>
      <trkpt lat="47.94693" lon="-0.68578">
        <ele>104</ele>
        <time>2024-04-19T15:50:20Z</time>
      </trkpt>
      <trkpt lat="47.94631" lon="-0.68578">
        <ele>109</ele>
        <time>2024-04-19T15:50:31Z</time>
      </trkpt>
      <trkpt lat="47.94592" lon="-0.68581">
        <ele>110</ele>
        <time>2024-04-19T15:50:38Z</time>
      </trkpt>
      <trkpt lat="47.94562" lon="-0.6859">
        <ele>108</ele>
        <time>2024-04-19T15:50:43Z</time>
      </trkpt>
      <trkpt lat="47.94547" lon="-0.6859">
        <ele>107</ele>
        <time>2024-04-19T15:50:46Z</time>
      </trkpt>
      <trkpt lat="47.94512" lon="-0.68596">
        <ele>105</ele>
        <time>2024-04-19T15:50:52Z</time>
      </trkpt>
      <trkpt lat="47.94498" lon="-0.68587">
        <ele>104</ele>
        <time>2024-04-19T15:50:55Z</time>
      </trkpt>
      <trkpt lat="47.94389" lon="-0.68472">
        <ele>101</ele>
        <time>2024-04-19T15:51:19Z</time>
      </trkpt>
      <trkpt lat="47.94343" lon="-0.68428">
        <ele>100</ele>
        <time>2024-04-19T15:51:28Z</time>
      </trkpt>
      <trkpt lat="47.94286" lon="-0.68383">
        <ele>102</ele>
        <time>2024-04-19T15:51:40Z</time>
      </trkpt>
      <trkpt lat="47.94074" lon="-0.68227">
        <ele>111</ele>
        <time>2024-04-19T15:52:22Z</time>
      </trkpt>
      <trkpt lat="47.94057" lon="-0.6822">
        <ele>111</ele>
        <time>2024-04-19T15:52:25Z</time>
      </trkpt>
      <trkpt lat="47.94012" lon="-0.6821">
        <ele>111</ele>
        <time>2024-04-19T15:52:33Z</time>
      </trkpt>
      <trkpt lat="47.93932" lon="-0.68179">
        <ele>112</ele>
        <time>2024-04-19T15:52:48Z</time>
      </trkpt>
      <trkpt lat="47.93908" lon="-0.68179">
        <ele>112</ele>
        <time>2024-04-19T15:52:52Z</time>
      </trkpt>
      <trkpt lat="47.93824" lon="-0.68192">
        <ele>113</ele>
        <time>2024-04-19T15:53:07Z</time>
      </trkpt>
      <trkpt lat="47.93805" lon="-0.68192">
        <ele>113</ele>
        <time>2024-04-19T15:53:11Z</time>
      </trkpt>
      <trkpt lat="47.93787" lon="-0.68185">
        <ele>113</ele>
        <time>2024-04-19T15:53:14Z</time>
      </trkpt>
      <trkpt lat="47.93773" lon="-0.6817">
        <ele>114</ele>
        <time>2024-04-19T15:53:17Z</time>
      </trkpt>
      <trkpt lat="47.93765" lon="-0.68155">
        <ele>114</ele>
        <time>2024-04-19T15:53:19Z</time>
      </trkpt>
      <trkpt lat="47.93714" lon="-0.6803">
        <ele>114</ele>
        <time>2024-04-19T15:53:37Z</time>
      </trkpt>
      <trkpt lat="47.93702" lon="-0.68004">
        <ele>114</ele>
        <time>2024-04-19T15:53:40Z</time>
      </trkpt>
      <trkpt lat="47.93688" lon="-0.67981">
        <ele>114</ele>
        <time>2024-04-19T15:53:44Z</time>
      </trkpt>
      <trkpt lat="47.93657" lon="-0.67946">
        <ele>113</ele>
        <time>2024-04-19T15:53:51Z</time>
      </trkpt>
      <trkpt lat="47.93608" lon="-0.67911">
        <ele>112</ele>
        <time>2024-04-19T15:54:01Z</time>
      </trkpt>
      <trkpt lat="47.93585" lon="-0.67903">
        <ele>111</ele>
        <time>2024-04-19T15:54:05Z</time>
      </trkpt>
      <trkpt lat="47.93569" lon="-0.67905">
        <ele>111</ele>
        <time>2024-04-19T15:54:08Z</time>
      </trkpt>
      <trkpt lat="47.93562" lon="-0.67909">
        <ele>111</ele>
        <time>2024-04-19T15:54:09Z</time>
      </trkpt>
      <trkpt lat="47.9355" lon="-0.67924">
        <ele>111</ele>
        <time>2024-04-19T15:54:12Z</time>
      </trkpt>
      <trkpt lat="47.93512" lon="-0.67985">
        <ele>110</ele>
        <time>2024-04-19T15:54:22Z</time>
      </trkpt>
      <trkpt lat="47.93461" lon="-0.68039">
        <ele>109</ele>
        <time>2024-04-19T15:54:33Z</time>
      </trkpt>
      <trkpt lat="47.93461" lon="-0.68033">
        <ele>109</ele>
        <time>2024-04-19T15:54:34Z</time>
      </trkpt>
      <trkpt lat="47.9349" lon="-0.68006">
        <ele>110</ele>
        <time>2024-04-19T15:54:40Z</time>
      </trkpt>
      <trkpt lat="47.9349" lon="-0.67994">
        <ele>110</ele>
        <time>2024-04-19T15:54:41Z</time>
      </trkpt>
      <trkpt lat="47.93485" lon="-0.67983">
        <ele>109</ele>
        <time>2024-04-19T15:54:43Z</time>
      </trkpt>
      <trkpt lat="47.93474" lon="-0.67973">
        <ele>109</ele>
        <time>2024-04-19T15:54:45Z</time>
      </trkpt>
      <trkpt lat="47.93438" lon="-0.67953">
        <ele>108</ele>
        <time>2024-04-19T15:54:52Z</time>
      </trkpt>
      <trkpt lat="47.93392" lon="-0.67919">
        <ele>106</ele>
        <time>2024-04-19T15:55:01Z</time>
      </trkpt>
      <trkpt lat="47.93338" lon="-0.67884">
        <ele>105</ele>
        <time>2024-04-19T15:55:12Z</time>
      </trkpt>
      <trkpt lat="47.93284" lon="-0.67836">
        <ele>103</ele>
        <time>2024-04-19T15:55:23Z</time>
      </trkpt>
      <trkpt lat="47.93259" lon="-0.6782">
        <ele>103</ele>
        <time>2024-04-19T15:55:28Z</time>
      </trkpt>
      <trkpt lat="47.9322" lon="-0.67779">
        <ele>102</ele>
        <time>2024-04-19T15:55:36Z</time>
      </trkpt>
      <trkpt lat="47.93199" lon="-0.67753">
        <ele>102</ele>
        <time>2024-04-19T15:55:41Z</time>
      </trkpt>
      <trkpt lat="47.93185" lon="-0.67727">
        <ele>101</ele>
        <time>2024-04-19T15:55:45Z</time>
      </trkpt>
      <trkpt lat="47.93174" lon="-0.67715">
        <ele>101</ele>
        <time>2024-04-19T15:55:47Z</time>
      </trkpt>
      <trkpt lat="47.93166" lon="-0.6771">
        <ele>101</ele>
        <time>2024-04-19T15:55:49Z</time>
      </trkpt>
      <trkpt lat="47.93137" lon="-0.67701">
        <ele>101</ele>
        <time>2024-04-19T15:55:54Z</time>
      </trkpt>
      <trkpt lat="47.93072" lon="-0.67691">
        <ele>100</ele>
        <time>2024-04-19T15:56:06Z</time>
      </trkpt>
      <trkpt lat="47.93005" lon="-0.67691">
        <ele>99</ele>
        <time>2024-04-19T15:56:18Z</time>
      </trkpt>
      <trkpt lat="47.92974" lon="-0.67681">
        <ele>99</ele>
        <time>2024-04-19T15:56:23Z</time>
      </trkpt>
      <trkpt lat="47.92951" lon="-0.67659">
        <ele>99</ele>
        <time>2024-04-19T15:56:28Z</time>
      </trkpt>
      <trkpt lat="47.92935" lon="-0.67651">
        <ele>100</ele>
        <time>2024-04-19T15:56:31Z</time>
      </trkpt>
      <trkpt lat="47.92925" lon="-0.67653">
        <ele>99</ele>
        <time>2024-04-19T15:56:33Z</time>
      </trkpt>
      <trkpt lat="47.92904" lon="-0.67669">
        <ele>99</ele>
        <time>2024-04-19T15:56:37Z</time>
      </trkpt>
      <trkpt lat="47.92892" lon="-0.6767">
        <ele>99</ele>
        <time>2024-04-19T15:56:39Z</time>
      </trkpt>
      <trkpt lat="47.92881" lon="-0.67666">
        <ele>99</ele>
        <time>2024-04-19T15:56:41Z</time>
      </trkpt>
      <trkpt lat="47.92835" lon="-0.6764">
        <ele>98</ele>
        <time>2024-04-19T15:56:50Z</time>
      </trkpt>
      <trkpt lat="47.92822" lon="-0.67639">
        <ele>98</ele>
        <time>2024-04-19T15:56:52Z</time>
      </trkpt>
      <trkpt lat="47.92782" lon="-0.67653">
        <ele>97</ele>
        <time>2024-04-19T15:57:00Z</time>
      </trkpt>
      <trkpt lat="47.92728" lon="-0.67666">
        <ele>96</ele>
        <time>2024-04-19T15:57:09Z</time>
      </trkpt>
      <trkpt lat="47.92662" lon="-0.67676">
        <ele>95</ele>
        <time>2024-04-19T15:57:21Z</time>
      </trkpt>
      <trkpt lat="47.92626" lon="-0.67675">
        <ele>92</ele>
        <time>2024-04-19T15:57:28Z</time>
      </trkpt>
      <trkpt lat="47.92568" lon="-0.67668">
        <ele>89</ele>
        <time>2024-04-19T15:57:38Z</time>
      </trkpt>
      <trkpt lat="47.92519" lon="-0.67657">
        <ele>88</ele>
        <time>2024-04-19T15:57:47Z</time>
      </trkpt>
      <trkpt lat="47.92495" lon="-0.67647">
        <ele>87</ele>
        <time>2024-04-19T15:57:51Z</time>
      </trkpt>
      <trkpt lat="47.92488" lon="-0.67647">
        <ele>87</ele>
        <time>2024-04-19T15:57:52Z</time>
      </trkpt>
      <trkpt lat="47.9247" lon="-0.6763">
        <ele>87</ele>
        <time>2024-04-19T15:57:56Z</time>
      </trkpt>
      <trkpt lat="47.92455" lon="-0.67622">
        <ele>87</ele>
        <time>2024-04-19T15:57:59Z</time>
      </trkpt>
      <trkpt lat="47.92438" lon="-0.67635">
        <ele>86</ele>
        <time>2024-04-19T15:58:03Z</time>
      </trkpt>
      <trkpt lat="47.92405" lon="-0.6764">
        <ele>86</ele>
        <time>2024-04-19T15:58:08Z</time>
      </trkpt>
      <trkpt lat="47.92394" lon="-0.6765">
        <ele>86</ele>
        <time>2024-04-19T15:58:11Z</time>
      </trkpt>
      <trkpt lat="47.92389" lon="-0.67664">
        <ele>85</ele>
        <time>2024-04-19T15:58:13Z</time>
      </trkpt>
      <trkpt lat="47.92376" lon="-0.67673">
        <ele>85</ele>
        <time>2024-04-19T15:58:15Z</time>
      </trkpt>
      <trkpt lat="47.92354" lon="-0.67661">
        <ele>85</ele>
        <time>2024-04-19T15:58:19Z</time>
      </trkpt>
      <trkpt lat="47.92334" lon="-0.67666">
        <ele>84</ele>
        <time>2024-04-19T15:58:23Z</time>
      </trkpt>
      <trkpt lat="47.92313" lon="-0.67686">
        <ele>85</ele>
        <time>2024-04-19T15:58:27Z</time>
      </trkpt>
      <trkpt lat="47.92307" lon="-0.67703">
        <ele>84</ele>
        <time>2024-04-19T15:58:30Z</time>
      </trkpt>
      <trkpt lat="47.92309" lon="-0.67772">
        <ele>83</ele>
        <time>2024-04-19T15:58:38Z</time>
      </trkpt>
      <trkpt lat="47.92307" lon="-0.67799">
        <ele>82</ele>
        <time>2024-04-19T15:58:41Z</time>
      </trkpt>
      <trkpt lat="47.92302" lon="-0.67824">
        <ele>81</ele>
        <time>2024-04-19T15:58:44Z</time>
      </trkpt>
      <trkpt lat="47.92309" lon="-0.67841">
        <ele>81</ele>
        <time>2024-04-19T15:58:47Z</time>
      </trkpt>
      <trkpt lat="47.92341" lon="-0.67859">
        <ele>81</ele>
        <time>2024-04-19T15:58:53Z</time>
      </trkpt>
      <trkpt lat="47.92381" lon="-0.67877">
        <ele>81</ele>
        <time>2024-04-19T15:59:00Z</time>
      </trkpt>
      <trkpt lat="47.92397" lon="-0.67874">
        <ele>81</ele>
        <time>2024-04-19T15:59:03Z</time>
      </trkpt>
      <trkpt lat="47.92408" lon="-0.67858">
        <ele>82</ele>
        <time>2024-04-19T15:59:06Z</time>
      </trkpt>
      <trkpt lat="47.92418" lon="-0.67868">
        <ele>82</ele>
        <time>2024-04-19T15:59:08Z</time>
      </trkpt>
      <trkpt lat="47.92406" lon="-0.67884">
        <ele>81</ele>
        <time>2024-04-19T15:59:11Z</time>
      </trkpt>
      <trkpt lat="47.92381" lon="-0.67887">
        <ele>80</ele>
        <time>2024-04-19T15:59:15Z</time>
      </trkpt>
      <trkpt lat="47.92299" lon="-0.67855">
        <ele>80</ele>
        <time>2024-04-19T15:59:30Z</time>
      </trkpt>
      <trkpt lat="47.9228" lon="-0.67859">
        <ele>80</ele>
        <time>2024-04-19T15:59:34Z</time>
      </trkpt>
      <trkpt lat="47.92252" lon="-0.67847">
        <ele>80</ele>
        <time>2024-04-19T15:59:39Z</time>
      </trkpt>
      <trkpt lat="47.92224" lon="-0.6779">
        <ele>82</ele>
        <time>2024-04-19T15:59:47Z</time>
      </trkpt>
      <trkpt lat="47.92239" lon="-0.67849">
        <ele>79</ele>
        <time>2024-04-19T15:59:55Z</time>
      </trkpt>
      <trkpt lat="47.92208" lon="-0.67883">
        <ele>78</ele>
        <time>2024-04-19T16:00:02Z</time>
      </trkpt>
      <trkpt lat="47.92209" lon="-0.67913">
        <ele>77</ele>
        <time>2024-04-19T16:00:05Z</time>
      </trkpt>
      <trkpt lat="47.92207" lon="-0.67933">
        <ele>77</ele>
        <time>2024-04-19T16:00:08Z</time>
      </trkpt>
      <trkpt lat="47.92183" lon="-0.67956">
        <ele>76</ele>
        <time>2024-04-19T16:00:13Z</time>
      </trkpt>
      <trkpt lat="47.92154" lon="-0.68005">
        <ele>75</ele>
        <time>2024-04-19T16:00:21Z</time>
      </trkpt>
      <trkpt lat="47.9215" lon="-0.6802">
        <ele>75</ele>
        <time>2024-04-19T16:00:22Z</time>
      </trkpt>
      <trkpt lat="47.9209" lon="-0.6803">
        <ele>74</ele>
        <time>2024-04-19T16:00:33Z</time>
      </trkpt>
      <trkpt lat="47.92062" lon="-0.67989">
        <ele>74</ele>
        <time>2024-04-19T16:00:40Z</time>
      </trkpt>
      <trkpt lat="47.92045" lon="-0.67935">
        <ele>74</ele>
        <time>2024-04-19T16:00:47Z</time>
      </trkpt>
      <trkpt lat="47.92026" lon="-0.67908">
        <ele>75</ele>
        <time>2024-04-19T16:00:52Z</time>
      </trkpt>
      <trkpt lat="47.92014" lon="-0.67882">
        <ele>75</ele>
        <time>2024-04-19T16:00:56Z</time>
      </trkpt>
      <trkpt lat="47.9198" lon="-0.679">
        <ele>76</ele>
        <time>2024-04-19T16:01:02Z</time>
      </trkpt>
      <trkpt lat="47.91966" lon="-0.67934">
        <ele>76</ele>
        <time>2024-04-19T16:01:07Z</time>
      </trkpt>
      <trkpt lat="47.9196" lon="-0.67982">
        <ele>76</ele>
        <time>2024-04-19T16:01:13Z</time>
      </trkpt>
      <trkpt lat="47.91946" lon="-0.68054">
        <ele>74</ele>
        <time>2024-04-19T16:01:22Z</time>
      </trkpt>
      <trkpt lat="47.91925" lon="-0.68088">
        <ele>73</ele>
        <time>2024-04-19T16:01:27Z</time>
      </trkpt>
      <trkpt lat="47.91889" lon="-0.68125">
        <ele>74</ele>
        <time>2024-04-19T16:01:35Z</time>
      </trkpt>
      <trkpt lat="47.91865" lon="-0.6818">
        <ele>75</ele>
        <time>2024-04-19T16:01:43Z</time>
      </trkpt>
      <trkpt lat="47.91803" lon="-0.68255">
        <ele>77</ele>
        <time>2024-04-19T16:01:57Z</time>
      </trkpt>
      <trkpt lat="47.91766" lon="-0.68295">
        <ele>78</ele>
        <time>2024-04-19T16:02:05Z</time>
      </trkpt>
      <trkpt lat="47.91739" lon="-0.6838">
        <ele>75</ele>
        <time>2024-04-19T16:02:16Z</time>
      </trkpt>
      <trkpt lat="47.91723" lon="-0.68483">
        <ele>74</ele>
        <time>2024-04-19T16:02:29Z</time>
      </trkpt>
      <trkpt lat="47.91687" lon="-0.68618">
        <ele>73</ele>
        <time>2024-04-19T16:02:46Z</time>
      </trkpt>
      <trkpt lat="47.91691" lon="-0.68679">
        <ele>72</ele>
        <time>2024-04-19T16:02:54Z</time>
      </trkpt>
      <trkpt lat="47.91688" lon="-0.68745">
        <ele>69</ele>
        <time>2024-04-19T16:03:01Z</time>
      </trkpt>
      <trkpt lat="47.91706" lon="-0.68756">
        <ele>69</ele>
        <time>2024-04-19T16:03:05Z</time>
      </trkpt>
      <trkpt lat="47.91752" lon="-0.68754">
        <ele>70</ele>
        <time>2024-04-19T16:03:13Z</time>
      </trkpt>
      <trkpt lat="47.91765" lon="-0.68723">
        <ele>73</ele>
        <time>2024-04-19T16:03:17Z</time>
      </trkpt>
      <trkpt lat="47.9177" lon="-0.68682">
        <ele>75</ele>
        <time>2024-04-19T16:03:22Z</time>
      </trkpt>
      <trkpt lat="47.91763" lon="-0.68646">
        <ele>75</ele>
        <time>2024-04-19T16:03:27Z</time>
      </trkpt>
      <trkpt lat="47.91771" lon="-0.686">
        <ele>74</ele>
        <time>2024-04-19T16:03:33Z</time>
      </trkpt>
      <trkpt lat="47.91806" lon="-0.6851">
        <ele>75</ele>
        <time>2024-04-19T16:03:45Z</time>
      </trkpt>
      <trkpt lat="47.91846" lon="-0.68434">
        <ele>75</ele>
        <time>2024-04-19T16:03:57Z</time>
      </trkpt>
      <trkpt lat="47.91911" lon="-0.6834">
        <ele>76</ele>
        <time>2024-04-19T16:04:13Z</time>
      </trkpt>
      <trkpt lat="47.91934" lon="-0.68334">
        <ele>76</ele>
        <time>2024-04-19T16:04:17Z</time>
      </trkpt>
      <trkpt lat="47.92" lon="-0.68254">
        <ele>76</ele>
        <time>2024-04-19T16:04:32Z</time>
      </trkpt>
      <trkpt lat="47.92023" lon="-0.68195">
        <ele>76</ele>
        <time>2024-04-19T16:04:40Z</time>
      </trkpt>
      <trkpt lat="47.92038" lon="-0.68129">
        <ele>75</ele>
        <time>2024-04-19T16:04:48Z</time>
      </trkpt>
      <trkpt lat="47.92067" lon="-0.68064">
        <ele>75</ele>
        <time>2024-04-19T16:04:58Z</time>
      </trkpt>
      <trkpt lat="47.92082" lon="-0.68046">
        <ele>75</ele>
        <time>2024-04-19T16:05:01Z</time>
      </trkpt>
      <trkpt lat="47.92111" lon="-0.68031">
        <ele>75</ele>
        <time>2024-04-19T16:05:07Z</time>
      </trkpt>
      <trkpt lat="47.92155" lon="-0.6802">
        <ele>75</ele>
        <time>2024-04-19T16:05:14Z</time>
      </trkpt>
      <trkpt lat="47.92159" lon="-0.6804">
        <ele>76</ele>
        <time>2024-04-19T16:05:17Z</time>
      </trkpt>
      <trkpt lat="47.92221" lon="-0.68062">
        <ele>78</ele>
        <time>2024-04-19T16:05:28Z</time>
      </trkpt>
      <trkpt lat="47.92263" lon="-0.68069">
        <ele>80</ele>
        <time>2024-04-19T16:05:36Z</time>
      </trkpt>
      <trkpt lat="47.92269" lon="-0.67952">
        <ele>78</ele>
        <time>2024-04-19T16:05:50Z</time>
      </trkpt>
      <trkpt lat="47.92315" lon="-0.67978">
        <ele>79</ele>
        <time>2024-04-19T16:05:59Z</time>
      </trkpt>
      <trkpt lat="47.92375" lon="-0.68032">
        <ele>81</ele>
        <time>2024-04-19T16:06:11Z</time>
      </trkpt>
      <trkpt lat="47.92426" lon="-0.68092">
        <ele>82</ele>
        <time>2024-04-19T16:06:23Z</time>
      </trkpt>
      <trkpt lat="47.92535" lon="-0.68239">
        <ele>83</ele>
        <time>2024-04-19T16:06:49Z</time>
      </trkpt>
      <trkpt lat="47.92607" lon="-0.68359">
        <ele>85</ele>
        <time>2024-04-19T16:07:08Z</time>
      </trkpt>
      <trkpt lat="47.92629" lon="-0.68391">
        <ele>87</ele>
        <time>2024-04-19T16:07:13Z</time>
      </trkpt>
      <trkpt lat="47.92711" lon="-0.68479">
        <ele>89</ele>
        <time>2024-04-19T16:07:31Z</time>
      </trkpt>
      <trkpt lat="47.92798" lon="-0.68558">
        <ele>93</ele>
        <time>2024-04-19T16:07:49Z</time>
      </trkpt>
      <trkpt lat="47.92814" lon="-0.68569">
        <ele>93</ele>
        <time>2024-04-19T16:07:53Z</time>
      </trkpt>
      <trkpt lat="47.92845" lon="-0.68602">
        <ele>94</ele>
        <time>2024-04-19T16:07:59Z</time>
      </trkpt>
      <trkpt lat="47.92863" lon="-0.68625">
        <ele>95</ele>
        <time>2024-04-19T16:08:04Z</time>
      </trkpt>
      <trkpt lat="47.93024" lon="-0.68871">
        <ele>95</ele>
        <time>2024-04-19T16:08:45Z</time>
      </trkpt>
      <trkpt lat="47.93125" lon="-0.68982">
        <ele>99</ele>
        <time>2024-04-19T16:09:07Z</time>
      </trkpt>
      <trkpt lat="47.93137" lon="-0.69">
        <ele>100</ele>
        <time>2024-04-19T16:09:10Z</time>
      </trkpt>
      <trkpt lat="47.93141" lon="-0.6903">
        <ele>101</ele>
        <time>2024-04-19T16:09:14Z</time>
      </trkpt>
      <trkpt lat="47.93138" lon="-0.69117">
        <ele>100</ele>
        <time>2024-04-19T16:09:24Z</time>
      </trkpt>
      <trkpt lat="47.93104" lon="-0.69498">
        <ele>95</ele>
        <time>2024-04-19T16:10:10Z</time>
      </trkpt>
      <trkpt lat="47.93106" lon="-0.69575">
        <ele>94</ele>
        <time>2024-04-19T16:10:19Z</time>
      </trkpt>
      <trkpt lat="47.93116" lon="-0.69632">
        <ele>92</ele>
        <time>2024-04-19T16:10:26Z</time>
      </trkpt>
      <trkpt lat="47.93147" lon="-0.69748">
        <ele>92</ele>
        <time>2024-04-19T16:10:41Z</time>
      </trkpt>
      <trkpt lat="47.93167" lon="-0.69838">
        <ele>92</ele>
        <time>2024-04-19T16:10:52Z</time>
      </trkpt>
      <trkpt lat="47.93194" lon="-0.69973">
        <ele>95</ele>
        <time>2024-04-19T16:11:09Z</time>
      </trkpt>
      <trkpt lat="47.93202" lon="-0.70037">
        <ele>94</ele>
        <time>2024-04-19T16:11:17Z</time>
      </trkpt>
      <trkpt lat="47.93201" lon="-0.70061">
        <ele>93</ele>
        <time>2024-04-19T16:11:20Z</time>
      </trkpt>
      <trkpt lat="47.93198" lon="-0.70075">
        <ele>93</ele>
        <time>2024-04-19T16:11:21Z</time>
      </trkpt>
      <trkpt lat="47.93189" lon="-0.70084">
        <ele>93</ele>
        <time>2024-04-19T16:11:23Z</time>
      </trkpt>
      <trkpt lat="47.93118" lon="-0.70129">
        <ele>92</ele>
        <time>2024-04-19T16:11:37Z</time>
      </trkpt>
      <trkpt lat="47.93087" lon="-0.70154">
        <ele>93</ele>
        <time>2024-04-19T16:11:43Z</time>
      </trkpt>
      <trkpt lat="47.9307" lon="-0.70176">
        <ele>93</ele>
        <time>2024-04-19T16:11:47Z</time>
      </trkpt>
      <trkpt lat="47.93019" lon="-0.70276">
        <ele>91</ele>
        <time>2024-04-19T16:12:02Z</time>
      </trkpt>
      <trkpt lat="47.93009" lon="-0.70286">
        <ele>91</ele>
        <time>2024-04-19T16:12:04Z</time>
      </trkpt>
      <trkpt lat="47.9278" lon="-0.70392">
        <ele>84</ele>
        <time>2024-04-19T16:12:47Z</time>
      </trkpt>
      <trkpt lat="47.92741" lon="-0.70407">
        <ele>82</ele>
        <time>2024-04-19T16:12:54Z</time>
      </trkpt>
      <trkpt lat="47.9271" lon="-0.7041">
        <ele>81</ele>
        <time>2024-04-19T16:13:00Z</time>
      </trkpt>
      <trkpt lat="47.92679" lon="-0.70403">
        <ele>80</ele>
        <time>2024-04-19T16:13:05Z</time>
      </trkpt>
      <trkpt lat="47.92659" lon="-0.70394">
        <ele>79</ele>
        <time>2024-04-19T16:13:09Z</time>
      </trkpt>
      <trkpt lat="47.92591" lon="-0.70354">
        <ele>79</ele>
        <time>2024-04-19T16:13:22Z</time>
      </trkpt>
      <trkpt lat="47.92506" lon="-0.70314">
        <ele>77</ele>
        <time>2024-04-19T16:13:38Z</time>
      </trkpt>
      <trkpt lat="47.9244" lon="-0.70295">
        <ele>76</ele>
        <time>2024-04-19T16:13:50Z</time>
      </trkpt>
      <trkpt lat="47.92413" lon="-0.70301">
        <ele>76</ele>
        <time>2024-04-19T16:13:55Z</time>
      </trkpt>
      <trkpt lat="47.92287" lon="-0.70354">
        <ele>76</ele>
        <time>2024-04-19T16:14:18Z</time>
      </trkpt>
      <trkpt lat="47.92263" lon="-0.70356">
        <ele>76</ele>
        <time>2024-04-19T16:14:22Z</time>
      </trkpt>
      <trkpt lat="47.92238" lon="-0.70349">
        <ele>76</ele>
        <time>2024-04-19T16:14:27Z</time>
      </trkpt>
      <trkpt lat="47.92223" lon="-0.70339">
        <ele>76</ele>
        <time>2024-04-19T16:14:30Z</time>
      </trkpt>
      <trkpt lat="47.92196" lon="-0.70309">
        <ele>77</ele>
        <time>2024-04-19T16:14:36Z</time>
      </trkpt>
      <trkpt lat="47.92019" lon="-0.70044">
        <ele>78</ele>
        <time>2024-04-19T16:15:20Z</time>
      </trkpt>
      <trkpt lat="47.91997" lon="-0.70013">
        <ele>78</ele>
        <time>2024-04-19T16:15:26Z</time>
      </trkpt>
      <trkpt lat="47.91989" lon="-0.70012">
        <ele>78</ele>
        <time>2024-04-19T16:15:27Z</time>
      </trkpt>
      <trkpt lat="47.91956" lon="-0.70054">
        <ele>78</ele>
        <time>2024-04-19T16:15:35Z</time>
      </trkpt>
      <trkpt lat="47.9194" lon="-0.7007">
        <ele>78</ele>
        <time>2024-04-19T16:15:38Z</time>
      </trkpt>
      <trkpt lat="47.91929" lon="-0.70077">
        <ele>78</ele>
        <time>2024-04-19T16:15:40Z</time>
      </trkpt>
      <trkpt lat="47.91708" lon="-0.70179">
        <ele>83</ele>
        <time>2024-04-19T16:16:22Z</time>
      </trkpt>
      <trkpt lat="47.91687" lon="-0.70194">
        <ele>83</ele>
        <time>2024-04-19T16:16:26Z</time>
      </trkpt>
      <trkpt lat="47.91623" lon="-0.70256">
        <ele>81</ele>
        <time>2024-04-19T16:16:39Z</time>
      </trkpt>
      <trkpt lat="47.91602" lon="-0.70272">
        <ele>80</ele>
        <time>2024-04-19T16:16:44Z</time>
      </trkpt>
      <trkpt lat="47.91587" lon="-0.7028">
        <ele>79</ele>
        <time>2024-04-19T16:16:46Z</time>
      </trkpt>
      <trkpt lat="47.91561" lon="-0.70291">
        <ele>78</ele>
        <time>2024-04-19T16:16:51Z</time>
      </trkpt>
      <trkpt lat="47.91551" lon="-0.70293">
        <ele>77</ele>
        <time>2024-04-19T16:16:53Z</time>
      </trkpt>
      <trkpt lat="47.9153" lon="-0.70294">
        <ele>76</ele>
        <time>2024-04-19T16:16:57Z</time>
      </trkpt>
      <trkpt lat="47.91454" lon="-0.70288">
        <ele>73</ele>
        <time>2024-04-19T16:17:10Z</time>
      </trkpt>
      <trkpt lat="47.91424" lon="-0.7029">
        <ele>72</ele>
        <time>2024-04-19T16:17:16Z</time>
      </trkpt>
      <trkpt lat="47.91405" lon="-0.70295">
        <ele>71</ele>
        <time>2024-04-19T16:17:19Z</time>
      </trkpt>
      <trkpt lat="47.91386" lon="-0.70304">
        <ele>69</ele>
        <time>2024-04-19T16:17:23Z</time>
      </trkpt>
      <trkpt lat="47.9135" lon="-0.7033">
        <ele>68</ele>
        <time>2024-04-19T16:17:30Z</time>
      </trkpt>
      <trkpt lat="47.91333" lon="-0.70348">
        <ele>67</ele>
        <time>2024-04-19T16:17:33Z</time>
      </trkpt>
      <trkpt lat="47.91318" lon="-0.70373">
        <ele>67</ele>
        <time>2024-04-19T16:17:37Z</time>
      </trkpt>
      <trkpt lat="47.91278" lon="-0.7046">
        <ele>64</ele>
        <time>2024-04-19T16:17:50Z</time>
      </trkpt>
      <trkpt lat="47.91213" lon="-0.70585">
        <ele>58</ele>
        <time>2024-04-19T16:18:09Z</time>
      </trkpt>
      <trkpt lat="47.91181" lon="-0.70633">
        <ele>55</ele>
        <time>2024-04-19T16:18:17Z</time>
      </trkpt>
      <trkpt lat="47.91132" lon="-0.70699">
        <ele>52</ele>
        <time>2024-04-19T16:18:29Z</time>
      </trkpt>
      <trkpt lat="47.91109" lon="-0.70737">
        <ele>50</ele>
        <time>2024-04-19T16:18:35Z</time>
      </trkpt>
      <trkpt lat="47.91099" lon="-0.70766">
        <ele>49</ele>
        <time>2024-04-19T16:18:39Z</time>
      </trkpt>
      <trkpt lat="47.91086" lon="-0.70829">
        <ele>47</ele>
        <time>2024-04-19T16:18:47Z</time>
      </trkpt>
      <trkpt lat="47.91074" lon="-0.70856">
        <ele>46</ele>
        <time>2024-04-19T16:18:50Z</time>
      </trkpt>
      <trkpt lat="47.91066" lon="-0.70867">
        <ele>45</ele>
        <time>2024-04-19T16:18:52Z</time>
      </trkpt>
      <trkpt lat="47.91047" lon="-0.70884">
        <ele>43</ele>
        <time>2024-04-19T16:18:56Z</time>
      </trkpt>
      <trkpt lat="47.91017" lon="-0.70905">
        <ele>40</ele>
        <time>2024-04-19T16:19:02Z</time>
      </trkpt>
      <trkpt lat="47.90995" lon="-0.70917">
        <ele>38</ele>
        <time>2024-04-19T16:19:06Z</time>
      </trkpt>
      <trkpt lat="47.90988" lon="-0.70926">
        <ele>37</ele>
        <time>2024-04-19T16:19:08Z</time>
      </trkpt>
      <trkpt lat="47.9099" lon="-0.70939">
        <ele>37</ele>
        <time>2024-04-19T16:19:10Z</time>
      </trkpt>
      <trkpt lat="47.91036" lon="-0.7102">
        <ele>38</ele>
        <time>2024-04-19T16:19:22Z</time>
      </trkpt>
      <trkpt lat="47.91097" lon="-0.71101">
        <ele>40</ele>
        <time>2024-04-19T16:19:37Z</time>
      </trkpt>
      <trkpt lat="47.9113" lon="-0.71173">
        <ele>40</ele>
        <time>2024-04-19T16:19:47Z</time>
      </trkpt>
      <trkpt lat="47.9114" lon="-0.71213">
        <ele>40</ele>
        <time>2024-04-19T16:19:52Z</time>
      </trkpt>
      <trkpt lat="47.91146" lon="-0.71306">
        <ele>40</ele>
        <time>2024-04-19T16:20:03Z</time>
      </trkpt>
      <trkpt lat="47.91151" lon="-0.71336">
        <ele>40</ele>
        <time>2024-04-19T16:20:07Z</time>
      </trkpt>
      <trkpt lat="47.91154" lon="-0.71376">
        <ele>41</ele>
        <time>2024-04-19T16:20:12Z</time>
      </trkpt>
      <trkpt lat="47.91164" lon="-0.71399">
        <ele>42</ele>
        <time>2024-04-19T16:20:15Z</time>
      </trkpt>
      <trkpt lat="47.91217" lon="-0.71484">
        <ele>43</ele>
        <time>2024-04-19T16:20:29Z</time>
      </trkpt>
      <trkpt lat="47.91269" lon="-0.71546">
        <ele>45</ele>
        <time>2024-04-19T16:20:41Z</time>
      </trkpt>
      <trkpt lat="47.91306" lon="-0.71616">
        <ele>44</ele>
        <time>2024-04-19T16:20:51Z</time>
      </trkpt>
      <trkpt lat="47.91332" lon="-0.71645">
        <ele>45</ele>
        <time>2024-04-19T16:20:57Z</time>
      </trkpt>
      <trkpt lat="47.91355" lon="-0.71656">
        <ele>45</ele>
        <time>2024-04-19T16:21:02Z</time>
      </trkpt>
      <trkpt lat="47.91372" lon="-0.7167">
        <ele>44</ele>
        <time>2024-04-19T16:21:05Z</time>
      </trkpt>
      <trkpt lat="47.91382" lon="-0.71691">
        <ele>44</ele>
        <time>2024-04-19T16:21:08Z</time>
      </trkpt>
      <trkpt lat="47.91395" lon="-0.71741">
        <ele>44</ele>
        <time>2024-04-19T16:21:14Z</time>
      </trkpt>
      <trkpt lat="47.91405" lon="-0.71765">
        <ele>44</ele>
        <time>2024-04-19T16:21:18Z</time>
      </trkpt>
      <trkpt lat="47.91388" lon="-0.71944">
        <ele>45</ele>
        <time>2024-04-19T16:21:39Z</time>
      </trkpt>
      <trkpt lat="47.91352" lon="-0.72256">
        <ele>41</ele>
        <time>2024-04-19T16:22:17Z</time>
      </trkpt>
      <trkpt lat="47.91347" lon="-0.72277">
        <ele>40</ele>
        <time>2024-04-19T16:22:20Z</time>
      </trkpt>
      <trkpt lat="47.91332" lon="-0.72318">
        <ele>38</ele>
        <time>2024-04-19T16:22:25Z</time>
      </trkpt>
      <trkpt lat="47.91254" lon="-0.72484">
        <ele>43</ele>
        <time>2024-04-19T16:22:50Z</time>
      </trkpt>
      <trkpt lat="47.91245" lon="-0.72474">
        <ele>44</ele>
        <time>2024-04-19T16:22:52Z</time>
      </trkpt>
      <trkpt lat="47.9125" lon="-0.72456">
        <ele>42</ele>
        <time>2024-04-19T16:22:54Z</time>
      </trkpt>
      <trkpt lat="47.91217" lon="-0.72422">
        <ele>46</ele>
        <time>2024-04-19T16:23:01Z</time>
      </trkpt>
      <trkpt lat="47.91206" lon="-0.72399">
        <ele>47</ele>
        <time>2024-04-19T16:23:04Z</time>
      </trkpt>
      <trkpt lat="47.91176" lon="-0.72363">
        <ele>51</ele>
        <time>2024-04-19T16:23:11Z</time>
      </trkpt>
      <trkpt lat="47.91142" lon="-0.72283">
        <ele>49</ele>
        <time>2024-04-19T16:23:23Z</time>
      </trkpt>
      <trkpt lat="47.91086" lon="-0.7212">
        <ele>54</ele>
        <time>2024-04-19T16:23:44Z</time>
      </trkpt>
      <trkpt lat="47.91058" lon="-0.72013">
        <ele>50</ele>
        <time>2024-04-19T16:23:58Z</time>
      </trkpt>
      <trkpt lat="47.91057" lon="-0.71919">
        <ele>48</ele>
        <time>2024-04-19T16:24:09Z</time>
      </trkpt>
      <trkpt lat="47.91011" lon="-0.71724">
        <ele>42</ele>
        <time>2024-04-19T16:24:34Z</time>
      </trkpt>
      <trkpt lat="47.90966" lon="-0.71568">
        <ele>38</ele>
        <time>2024-04-19T16:24:54Z</time>
      </trkpt>
      <trkpt lat="47.90949" lon="-0.71448">
        <ele>35</ele>
        <time>2024-04-19T16:25:09Z</time>
      </trkpt>
      <trkpt lat="47.90942" lon="-0.71237">
        <ele>32</ele>
        <time>2024-04-19T16:25:34Z</time>
      </trkpt>
      <trkpt lat="47.90892" lon="-0.71052">
        <ele>32</ele>
        <time>2024-04-19T16:25:58Z</time>
      </trkpt>
      <trkpt lat="47.90655" lon="-0.71207">
        <ele>51</ele>
        <time>2024-04-19T16:26:44Z</time>
      </trkpt>
      <trkpt lat="47.90588" lon="-0.7124">
        <ele>60</ele>
        <time>2024-04-19T16:26:56Z</time>
      </trkpt>
      <trkpt lat="47.90509" lon="-0.71242">
        <ele>66</ele>
        <time>2024-04-19T16:27:10Z</time>
      </trkpt>
      <trkpt lat="47.90249" lon="-0.71283">
        <ele>80</ele>
        <time>2024-04-19T16:27:57Z</time>
      </trkpt>
      <trkpt lat="47.90194" lon="-0.71391">
        <ele>81</ele>
        <time>2024-04-19T16:28:13Z</time>
      </trkpt>
      <trkpt lat="47.90163" lon="-0.71533">
        <ele>82</ele>
        <time>2024-04-19T16:28:31Z</time>
      </trkpt>
      <trkpt lat="47.90083" lon="-0.71539">
        <ele>82</ele>
        <time>2024-04-19T16:28:45Z</time>
      </trkpt>
      <trkpt lat="47.90052" lon="-0.71573">
        <ele>81</ele>
        <time>2024-04-19T16:28:52Z</time>
      </trkpt>
      <trkpt lat="47.9015" lon="-0.71677">
        <ele>81</ele>
        <time>2024-04-19T16:29:14Z</time>
      </trkpt>
      <trkpt lat="47.90238" lon="-0.71868">
        <ele>78</ele>
        <time>2024-04-19T16:29:41Z</time>
      </trkpt>
      <trkpt lat="47.90271" lon="-0.72107">
        <ele>78</ele>
        <time>2024-04-19T16:30:10Z</time>
      </trkpt>
      <trkpt lat="47.90293" lon="-0.7222">
        <ele>80</ele>
        <time>2024-04-19T16:30:24Z</time>
      </trkpt>
      <trkpt lat="47.90325" lon="-0.7228">
        <ele>80</ele>
        <time>2024-04-19T16:30:33Z</time>
      </trkpt>
      <trkpt lat="47.90363" lon="-0.72517">
        <ele>81</ele>
        <time>2024-04-19T16:31:03Z</time>
      </trkpt>
      <trkpt lat="47.90485" lon="-0.72767">
        <ele>77</ele>
        <time>2024-04-19T16:31:39Z</time>
      </trkpt>
      <trkpt lat="47.90547" lon="-0.72835">
        <ele>74</ele>
        <time>2024-04-19T16:31:53Z</time>
      </trkpt>
      <trkpt lat="47.90684" lon="-0.72902">
        <ele>79</ele>
        <time>2024-04-19T16:32:19Z</time>
      </trkpt>
      <trkpt lat="47.90749" lon="-0.72947">
        <ele>82</ele>
        <time>2024-04-19T16:32:31Z</time>
      </trkpt>
      <trkpt lat="47.90819" lon="-0.73015">
        <ele>83</ele>
        <time>2024-04-19T16:32:46Z</time>
      </trkpt>
      <trkpt lat="47.90971" lon="-0.73049">
        <ele>79</ele>
        <time>2024-04-19T16:33:14Z</time>
      </trkpt>
      <trkpt lat="47.91026" lon="-0.73091">
        <ele>78</ele>
        <time>2024-04-19T16:33:25Z</time>
      </trkpt>
      <trkpt lat="47.91071" lon="-0.73161">
        <ele>77</ele>
        <time>2024-04-19T16:33:36Z</time>
      </trkpt>
      <trkpt lat="47.91097" lon="-0.7304">
        <ele>73</ele>
        <time>2024-04-19T16:33:51Z</time>
      </trkpt>
      <trkpt lat="47.91124" lon="-0.7299">
        <ele>71</ele>
        <time>2024-04-19T16:33:59Z</time>
      </trkpt>
      <trkpt lat="47.91192" lon="-0.72749">
        <ele>63</ele>
        <time>2024-04-19T16:34:30Z</time>
      </trkpt>
      <trkpt lat="47.91258" lon="-0.72492">
        <ele>43</ele>
        <time>2024-04-19T16:35:03Z</time>
      </trkpt>
      <trkpt lat="47.91268" lon="-0.72474">
        <ele>41</ele>
        <time>2024-04-19T16:35:06Z</time>
      </trkpt>
      <trkpt lat="47.91288" lon="-0.72481">
        <ele>39</ele>
        <time>2024-04-19T16:35:10Z</time>
      </trkpt>
      <trkpt lat="47.91379" lon="-0.72678">
        <ele>44</ele>
        <time>2024-04-19T16:35:38Z</time>
      </trkpt>
      <trkpt lat="47.9146" lon="-0.7275">
        <ele>40</ele>
        <time>2024-04-19T16:35:55Z</time>
      </trkpt>
      <trkpt lat="47.91507" lon="-0.72809">
        <ele>40</ele>
        <time>2024-04-19T16:36:06Z</time>
      </trkpt>
      <trkpt lat="47.91534" lon="-0.72839">
        <ele>39</ele>
        <time>2024-04-19T16:36:12Z</time>
      </trkpt>
      <trkpt lat="47.91558" lon="-0.72858">
        <ele>39</ele>
        <time>2024-04-19T16:36:17Z</time>
      </trkpt>
      <trkpt lat="47.91591" lon="-0.72879">
        <ele>37</ele>
        <time>2024-04-19T16:36:23Z</time>
      </trkpt>
      <trkpt lat="47.91629" lon="-0.72899">
        <ele>36</ele>
        <time>2024-04-19T16:36:30Z</time>
      </trkpt>
      <trkpt lat="47.91648" lon="-0.72905">
        <ele>36</ele>
        <time>2024-04-19T16:36:34Z</time>
      </trkpt>
      <trkpt lat="47.91774" lon="-0.72974">
        <ele>38</ele>
        <time>2024-04-19T16:36:57Z</time>
      </trkpt>
      <trkpt lat="47.91791" lon="-0.72985">
        <ele>38</ele>
        <time>2024-04-19T16:37:01Z</time>
      </trkpt>
      <trkpt lat="47.91823" lon="-0.73015">
        <ele>40</ele>
        <time>2024-04-19T16:37:07Z</time>
      </trkpt>
      <trkpt lat="47.91897" lon="-0.7306">
        <ele>45</ele>
        <time>2024-04-19T16:37:22Z</time>
      </trkpt>
      <trkpt lat="47.91963" lon="-0.73144">
        <ele>49</ele>
        <time>2024-04-19T16:37:37Z</time>
      </trkpt>
      <trkpt lat="47.9199" lon="-0.73171">
        <ele>47</ele>
        <time>2024-04-19T16:37:43Z</time>
      </trkpt>
      <trkpt lat="47.92005" lon="-0.73181">
        <ele>46</ele>
        <time>2024-04-19T16:37:46Z</time>
      </trkpt>
      <trkpt lat="47.92053" lon="-0.73225">
        <ele>49</ele>
        <time>2024-04-19T16:37:56Z</time>
      </trkpt>
      <trkpt lat="47.92082" lon="-0.73229">
        <ele>46</ele>
        <time>2024-04-19T16:38:01Z</time>
      </trkpt>
      <trkpt lat="47.92115" lon="-0.73238">
        <ele>47</ele>
        <time>2024-04-19T16:38:07Z</time>
      </trkpt>
      <trkpt lat="47.92167" lon="-0.73248">
        <ele>49</ele>
        <time>2024-04-19T16:38:16Z</time>
      </trkpt>
      <trkpt lat="47.92259" lon="-0.73261">
        <ele>46</ele>
        <time>2024-04-19T16:38:33Z</time>
      </trkpt>
      <trkpt lat="47.92299" lon="-0.73264">
        <ele>48</ele>
        <time>2024-04-19T16:38:40Z</time>
      </trkpt>
      <trkpt lat="47.92315" lon="-0.73263">
        <ele>48</ele>
        <time>2024-04-19T16:38:43Z</time>
      </trkpt>
      <trkpt lat="47.92352" lon="-0.7325">
        <ele>47</ele>
        <time>2024-04-19T16:38:50Z</time>
      </trkpt>
      <trkpt lat="47.92382" lon="-0.73225">
        <ele>45</ele>
        <time>2024-04-19T16:38:56Z</time>
      </trkpt>
      <trkpt lat="47.92451" lon="-0.73149">
        <ele>39</ele>
        <time>2024-04-19T16:39:11Z</time>
      </trkpt>
      <trkpt lat="47.92578" lon="-0.7299">
        <ele>38</ele>
        <time>2024-04-19T16:39:40Z</time>
      </trkpt>
      <trkpt lat="47.92626" lon="-0.72934">
        <ele>36</ele>
        <time>2024-04-19T16:39:51Z</time>
      </trkpt>
      <trkpt lat="47.92677" lon="-0.72883">
        <ele>34</ele>
        <time>2024-04-19T16:40:02Z</time>
      </trkpt>
      <trkpt lat="47.92733" lon="-0.72801">
        <ele>34</ele>
        <time>2024-04-19T16:40:16Z</time>
      </trkpt>
      <trkpt lat="47.92815" lon="-0.72715">
        <ele>35</ele>
        <time>2024-04-19T16:40:34Z</time>
      </trkpt>
      <trkpt lat="47.92888" lon="-0.72647">
        <ele>35</ele>
        <time>2024-04-19T16:40:49Z</time>
      </trkpt>
      <trkpt lat="47.92944" lon="-0.726">
        <ele>36</ele>
        <time>2024-04-19T16:41:01Z</time>
      </trkpt>
      <trkpt lat="47.92978" lon="-0.72576">
        <ele>35</ele>
        <time>2024-04-19T16:41:07Z</time>
      </trkpt>
      <trkpt lat="47.93063" lon="-0.72523">
        <ele>38</ele>
        <time>2024-04-19T16:41:24Z</time>
      </trkpt>
      <trkpt lat="47.93088" lon="-0.72513">
        <ele>38</ele>
        <time>2024-04-19T16:41:28Z</time>
      </trkpt>
      <trkpt lat="47.93168" lon="-0.72489">
        <ele>43</ele>
        <time>2024-04-19T16:41:43Z</time>
      </trkpt>
      <trkpt lat="47.93186" lon="-0.72481">
        <ele>45</ele>
        <time>2024-04-19T16:41:46Z</time>
      </trkpt>
      <trkpt lat="47.93227" lon="-0.72448">
        <ele>47</ele>
        <time>2024-04-19T16:41:55Z</time>
      </trkpt>
      <trkpt lat="47.9325" lon="-0.72412">
        <ele>44</ele>
        <time>2024-04-19T16:42:00Z</time>
      </trkpt>
      <trkpt lat="47.93275" lon="-0.72342">
        <ele>43</ele>
        <time>2024-04-19T16:42:10Z</time>
      </trkpt>
      <trkpt lat="47.93294" lon="-0.72264">
        <ele>41</ele>
        <time>2024-04-19T16:42:20Z</time>
      </trkpt>
      <trkpt lat="47.933" lon="-0.7211">
        <ele>38</ele>
        <time>2024-04-19T16:42:38Z</time>
      </trkpt>
      <trkpt lat="47.93292" lon="-0.71998">
        <ele>37</ele>
        <time>2024-04-19T16:42:52Z</time>
      </trkpt>
      <trkpt lat="47.93294" lon="-0.71986">
        <ele>37</ele>
        <time>2024-04-19T16:42:53Z</time>
      </trkpt>
      <trkpt lat="47.93293" lon="-0.71932">
        <ele>37</ele>
        <time>2024-04-19T16:43:00Z</time>
      </trkpt>
      <trkpt lat="47.93296" lon="-0.71884">
        <ele>39</ele>
        <time>2024-04-19T16:43:05Z</time>
      </trkpt>
      <trkpt lat="47.93288" lon="-0.71726">
        <ele>42</ele>
        <time>2024-04-19T16:43:24Z</time>
      </trkpt>
      <trkpt lat="47.93269" lon="-0.71659">
        <ele>40</ele>
        <time>2024-04-19T16:43:33Z</time>
      </trkpt>
      <trkpt lat="47.93268" lon="-0.71612">
        <ele>40</ele>
        <time>2024-04-19T16:43:38Z</time>
      </trkpt>
      <trkpt lat="47.93263" lon="-0.71574">
        <ele>39</ele>
        <time>2024-04-19T16:43:43Z</time>
      </trkpt>
      <trkpt lat="47.93257" lon="-0.71465">
        <ele>38</ele>
        <time>2024-04-19T16:43:56Z</time>
      </trkpt>
      <trkpt lat="47.93247" lon="-0.71428">
        <ele>38</ele>
        <time>2024-04-19T16:44:01Z</time>
      </trkpt>
      <trkpt lat="47.93221" lon="-0.71361">
        <ele>39</ele>
        <time>2024-04-19T16:44:10Z</time>
      </trkpt>
      <trkpt lat="47.93189" lon="-0.71301">
        <ele>39</ele>
        <time>2024-04-19T16:44:19Z</time>
      </trkpt>
      <trkpt lat="47.9312" lon="-0.71198">
        <ele>38</ele>
        <time>2024-04-19T16:44:37Z</time>
      </trkpt>
      <trkpt lat="47.93093" lon="-0.71153">
        <ele>37</ele>
        <time>2024-04-19T16:44:44Z</time>
      </trkpt>
      <trkpt lat="47.93091" lon="-0.71143">
        <ele>37</ele>
        <time>2024-04-19T16:44:45Z</time>
      </trkpt>
      <trkpt lat="47.93095" lon="-0.71121">
        <ele>37</ele>
        <time>2024-04-19T16:44:48Z</time>
      </trkpt>
      <trkpt lat="47.93104" lon="-0.71117">
        <ele>38</ele>
        <time>2024-04-19T16:44:49Z</time>
      </trkpt>
      <trkpt lat="47.93119" lon="-0.71119">
        <ele>38</ele>
        <time>2024-04-19T16:44:52Z</time>
      </trkpt>
      <trkpt lat="47.93156" lon="-0.71132">
        <ele>40</ele>
        <time>2024-04-19T16:44:59Z</time>
      </trkpt>
      <trkpt lat="47.93221" lon="-0.7114">
        <ele>44</ele>
        <time>2024-04-19T16:45:10Z</time>
      </trkpt>
      <trkpt lat="47.9324" lon="-0.71148">
        <ele>46</ele>
        <time>2024-04-19T16:45:14Z</time>
      </trkpt>
      <trkpt lat="47.93263" lon="-0.71152">
        <ele>47</ele>
        <time>2024-04-19T16:45:18Z</time>
      </trkpt>
      <trkpt lat="47.93327" lon="-0.71154">
        <ele>48</ele>
        <time>2024-04-19T16:45:30Z</time>
      </trkpt>
      <trkpt lat="47.93366" lon="-0.71148">
        <ele>49</ele>
        <time>2024-04-19T16:45:36Z</time>
      </trkpt>
      <trkpt lat="47.93388" lon="-0.71141">
        <ele>49</ele>
        <time>2024-04-19T16:45:40Z</time>
      </trkpt>
      <trkpt lat="47.93417" lon="-0.71139">
        <ele>49</ele>
        <time>2024-04-19T16:45:46Z</time>
      </trkpt>
      <trkpt lat="47.93456" lon="-0.71142">
        <ele>51</ele>
        <time>2024-04-19T16:45:53Z</time>
      </trkpt>
      <trkpt lat="47.93499" lon="-0.71149">
        <ele>52</ele>
        <time>2024-04-19T16:46:00Z</time>
      </trkpt>
      <trkpt lat="47.93568" lon="-0.71164">
        <ele>54</ele>
        <time>2024-04-19T16:46:13Z</time>
      </trkpt>
      <trkpt lat="47.93572" lon="-0.71163">
        <ele>54</ele>
        <time>2024-04-19T16:46:13Z</time>
      </trkpt>
      <trkpt lat="47.93577" lon="-0.71156">
        <ele>54</ele>
        <time>2024-04-19T16:46:15Z</time>
      </trkpt>
      <trkpt lat="47.9358" lon="-0.71062">
        <ele>52</ele>
        <time>2024-04-19T16:46:26Z</time>
      </trkpt>
      <trkpt lat="47.93585" lon="-0.7102">
        <ele>52</ele>
        <time>2024-04-19T16:46:31Z</time>
      </trkpt>
      <trkpt lat="47.93589" lon="-0.71001">
        <ele>52</ele>
        <time>2024-04-19T16:46:33Z</time>
      </trkpt>
      <trkpt lat="47.93601" lon="-0.70982">
        <ele>48</ele>
        <time>2024-04-19T16:46:36Z</time>
      </trkpt>
      <trkpt lat="47.93614" lon="-0.70983">
        <ele>48</ele>
        <time>2024-04-19T16:46:39Z</time>
      </trkpt>
      <trkpt lat="47.93644" lon="-0.70997">
        <ele>47</ele>
        <time>2024-04-19T16:46:44Z</time>
      </trkpt>
      <trkpt lat="47.93662" lon="-0.71002">
        <ele>46</ele>
        <time>2024-04-19T16:46:48Z</time>
      </trkpt>
      <trkpt lat="47.93691" lon="-0.71005">
        <ele>45</ele>
        <time>2024-04-19T16:46:53Z</time>
      </trkpt>
      <trkpt lat="47.93701" lon="-0.71004">
        <ele>45</ele>
        <time>2024-04-19T16:46:55Z</time>
      </trkpt>
      <trkpt lat="47.93718" lon="-0.70999">
        <ele>43</ele>
        <time>2024-04-19T16:46:58Z</time>
      </trkpt>
      <trkpt lat="47.93729" lon="-0.7099">
        <ele>42</ele>
        <time>2024-04-19T16:47:00Z</time>
      </trkpt>
      <trkpt lat="47.9373" lon="-0.70983">
        <ele>42</ele>
        <time>2024-04-19T16:47:01Z</time>
      </trkpt>
      <trkpt lat="47.93726" lon="-0.70961">
        <ele>40</ele>
        <time>2024-04-19T16:47:03Z</time>
      </trkpt>
      <trkpt lat="47.93733" lon="-0.70954">
        <ele>39</ele>
        <time>2024-04-19T16:47:05Z</time>
      </trkpt>
      <trkpt lat="47.93748" lon="-0.70952">
        <ele>39</ele>
        <time>2024-04-19T16:47:08Z</time>
      </trkpt>
      <trkpt lat="47.93768" lon="-0.70954">
        <ele>39</ele>
        <time>2024-04-19T16:47:11Z</time>
      </trkpt>
      <trkpt lat="47.93815" lon="-0.7094">
        <ele>39</ele>
        <time>2024-04-19T16:47:20Z</time>
      </trkpt>
      <trkpt lat="47.93834" lon="-0.70942">
        <ele>40</ele>
        <time>2024-04-19T16:47:23Z</time>
      </trkpt>
      <trkpt lat="47.93873" lon="-0.70955">
        <ele>39</ele>
        <time>2024-04-19T16:47:30Z</time>
      </trkpt>
      <trkpt lat="47.93925" lon="-0.70978">
        <ele>40</ele>
        <time>2024-04-19T16:47:40Z</time>
      </trkpt>
      <trkpt lat="47.93963" lon="-0.71001">
        <ele>41</ele>
        <time>2024-04-19T16:47:47Z</time>
      </trkpt>
      <trkpt lat="47.94002" lon="-0.71035">
        <ele>44</ele>
        <time>2024-04-19T16:47:55Z</time>
      </trkpt>
      <trkpt lat="47.94048" lon="-0.71087">
        <ele>47</ele>
        <time>2024-04-19T16:48:05Z</time>
      </trkpt>
      <trkpt lat="47.94082" lon="-0.7112">
        <ele>50</ele>
        <time>2024-04-19T16:48:13Z</time>
      </trkpt>
      <trkpt lat="47.94112" lon="-0.71142">
        <ele>52</ele>
        <time>2024-04-19T16:48:19Z</time>
      </trkpt>
      <trkpt lat="47.94163" lon="-0.71168">
        <ele>52</ele>
        <time>2024-04-19T16:48:28Z</time>
      </trkpt>
      <trkpt lat="47.94198" lon="-0.71181">
        <ele>51</ele>
        <time>2024-04-19T16:48:35Z</time>
      </trkpt>
      <trkpt lat="47.94278" lon="-0.71193">
        <ele>47</ele>
        <time>2024-04-19T16:48:49Z</time>
      </trkpt>
      <trkpt lat="47.94319" lon="-0.71217">
        <ele>45</ele>
        <time>2024-04-19T16:48:57Z</time>
      </trkpt>
      <trkpt lat="47.94335" lon="-0.71235">
        <ele>45</ele>
        <time>2024-04-19T16:49:00Z</time>
      </trkpt>
      <trkpt lat="47.94356" lon="-0.71252">
        <ele>45</ele>
        <time>2024-04-19T16:49:05Z</time>
      </trkpt>
      <trkpt lat="47.94422" lon="-0.71315">
        <ele>44</ele>
        <time>2024-04-19T16:49:19Z</time>
      </trkpt>
      <trkpt lat="47.94445" lon="-0.71343">
        <ele>43</ele>
        <time>2024-04-19T16:49:24Z</time>
      </trkpt>
      <trkpt lat="47.94462" lon="-0.71376">
        <ele>43</ele>
        <time>2024-04-19T16:49:29Z</time>
      </trkpt>
      <trkpt lat="47.94498" lon="-0.71488">
        <ele>45</ele>
        <time>2024-04-19T16:49:44Z</time>
      </trkpt>
      <trkpt lat="47.94525" lon="-0.71599">
        <ele>51</ele>
        <time>2024-04-19T16:49:58Z</time>
      </trkpt>
      <trkpt lat="47.94528" lon="-0.71665">
        <ele>55</ele>
        <time>2024-04-19T16:50:06Z</time>
      </trkpt>
      <trkpt lat="47.94532" lon="-0.71682">
        <ele>54</ele>
        <time>2024-04-19T16:50:08Z</time>
      </trkpt>
      <trkpt lat="47.94534" lon="-0.71742">
        <ele>55</ele>
        <time>2024-04-19T16:50:15Z</time>
      </trkpt>
      <trkpt lat="47.94539" lon="-0.71797">
        <ele>55</ele>
        <time>2024-04-19T16:50:21Z</time>
      </trkpt>
      <trkpt lat="47.94536" lon="-0.71866">
        <ele>58</ele>
        <time>2024-04-19T16:50:30Z</time>
      </trkpt>
      <trkpt lat="47.94538" lon="-0.7188">
        <ele>58</ele>
        <time>2024-04-19T16:50:31Z</time>
      </trkpt>
      <trkpt lat="47.94556" lon="-0.71934">
        <ele>56</ele>
        <time>2024-04-19T16:50:39Z</time>
      </trkpt>
      <trkpt lat="47.94572" lon="-0.71955">
        <ele>54</ele>
        <time>2024-04-19T16:50:42Z</time>
      </trkpt>
      <trkpt lat="47.94603" lon="-0.71984">
        <ele>53</ele>
        <time>2024-04-19T16:50:49Z</time>
      </trkpt>
      <trkpt lat="47.94655" lon="-0.72016">
        <ele>51</ele>
        <time>2024-04-19T16:50:59Z</time>
      </trkpt>
      <trkpt lat="47.94713" lon="-0.72041">
        <ele>49</ele>
        <time>2024-04-19T16:51:10Z</time>
      </trkpt>
      <trkpt lat="47.94776" lon="-0.72048">
        <ele>44</ele>
        <time>2024-04-19T16:51:21Z</time>
      </trkpt>
      <trkpt lat="47.94923" lon="-0.72049">
        <ele>41</ele>
        <time>2024-04-19T16:51:47Z</time>
      </trkpt>
      <trkpt lat="47.95009" lon="-0.72045">
        <ele>38</ele>
        <time>2024-04-19T16:52:02Z</time>
      </trkpt>
      <trkpt lat="47.95098" lon="-0.72051">
        <ele>40</ele>
        <time>2024-04-19T16:52:18Z</time>
      </trkpt>
      <trkpt lat="47.95109" lon="-0.72054">
        <ele>40</ele>
        <time>2024-04-19T16:52:20Z</time>
      </trkpt>
      <trkpt lat="47.95118" lon="-0.72061">
        <ele>40</ele>
        <time>2024-04-19T16:52:22Z</time>
      </trkpt>
      <trkpt lat="47.95123" lon="-0.72061">
        <ele>41</ele>
        <time>2024-04-19T16:52:23Z</time>
      </trkpt>
      <trkpt lat="47.95277" lon="-0.72042">
        <ele>40</ele>
        <time>2024-04-19T16:52:50Z</time>
      </trkpt>
      <trkpt lat="47.95392" lon="-0.72003">
        <ele>40</ele>
        <time>2024-04-19T16:53:11Z</time>
      </trkpt>
      <trkpt lat="47.95435" lon="-0.71996">
        <ele>41</ele>
        <time>2024-04-19T16:53:19Z</time>
      </trkpt>
      <trkpt lat="47.95509" lon="-0.71998">
        <ele>40</ele>
        <time>2024-04-19T16:53:32Z</time>
      </trkpt>
      <trkpt lat="47.95547" lon="-0.72012">
        <ele>41</ele>
        <time>2024-04-19T16:53:39Z</time>
      </trkpt>
      <trkpt lat="47.95582" lon="-0.72039">
        <ele>40</ele>
        <time>2024-04-19T16:53:46Z</time>
      </trkpt>
      <trkpt lat="47.95615" lon="-0.72085">
        <ele>39</ele>
        <time>2024-04-19T16:53:54Z</time>
      </trkpt>
      <trkpt lat="47.95666" lon="-0.72209">
        <ele>39</ele>
        <time>2024-04-19T16:54:12Z</time>
      </trkpt>
      <trkpt lat="47.9569" lon="-0.7229">
        <ele>43</ele>
        <time>2024-04-19T16:54:22Z</time>
      </trkpt>
      <trkpt lat="47.95702" lon="-0.7235">
        <ele>46</ele>
        <time>2024-04-19T16:54:30Z</time>
      </trkpt>
      <trkpt lat="47.95708" lon="-0.7239">
        <ele>47</ele>
        <time>2024-04-19T16:54:34Z</time>
      </trkpt>
      <trkpt lat="47.95706" lon="-0.72448">
        <ele>52</ele>
        <time>2024-04-19T16:54:41Z</time>
      </trkpt>
      <trkpt lat="47.95709" lon="-0.72463">
        <ele>53</ele>
        <time>2024-04-19T16:54:43Z</time>
      </trkpt>
      <trkpt lat="47.95797" lon="-0.72686">
        <ele>57</ele>
        <time>2024-04-19T16:55:14Z</time>
      </trkpt>
      <trkpt lat="47.95812" lon="-0.7271">
        <ele>55</ele>
        <time>2024-04-19T16:55:18Z</time>
      </trkpt>
      <trkpt lat="47.95831" lon="-0.72732">
        <ele>52</ele>
        <time>2024-04-19T16:55:22Z</time>
      </trkpt>
      <trkpt lat="47.9586" lon="-0.72758">
        <ele>50</ele>
        <time>2024-04-19T16:55:28Z</time>
      </trkpt>
      <trkpt lat="47.95941" lon="-0.72874">
        <ele>50</ele>
        <time>2024-04-19T16:55:48Z</time>
      </trkpt>
      <trkpt lat="47.95971" lon="-0.72908">
        <ele>47</ele>
        <time>2024-04-19T16:55:55Z</time>
      </trkpt>
      <trkpt lat="47.96004" lon="-0.72952">
        <ele>44</ele>
        <time>2024-04-19T16:56:03Z</time>
      </trkpt>
      <trkpt lat="47.96055" lon="-0.73">
        <ele>42</ele>
        <time>2024-04-19T16:56:14Z</time>
      </trkpt>
      <trkpt lat="47.96072" lon="-0.73009">
        <ele>41</ele>
        <time>2024-04-19T16:56:17Z</time>
      </trkpt>
      <trkpt lat="47.96124" lon="-0.73028">
        <ele>39</ele>
        <time>2024-04-19T16:56:26Z</time>
      </trkpt>
      <trkpt lat="47.96175" lon="-0.73037">
        <ele>38</ele>
        <time>2024-04-19T16:56:35Z</time>
      </trkpt>
      <trkpt lat="47.96282" lon="-0.73043">
        <ele>37</ele>
        <time>2024-04-19T16:56:55Z</time>
      </trkpt>
      <trkpt lat="47.96316" lon="-0.73039">
        <ele>37</ele>
        <time>2024-04-19T16:57:01Z</time>
      </trkpt>
      <trkpt lat="47.964" lon="-0.7302">
        <ele>36</ele>
        <time>2024-04-19T16:57:16Z</time>
      </trkpt>
      <trkpt lat="47.96421" lon="-0.73012">
        <ele>36</ele>
        <time>2024-04-19T16:57:20Z</time>
      </trkpt>
      <trkpt lat="47.96476" lon="-0.72973">
        <ele>37</ele>
        <time>2024-04-19T16:57:30Z</time>
      </trkpt>
      <trkpt lat="47.96501" lon="-0.72951">
        <ele>37</ele>
        <time>2024-04-19T16:57:36Z</time>
      </trkpt>
      <trkpt lat="47.96521" lon="-0.7293">
        <ele>38</ele>
        <time>2024-04-19T16:57:40Z</time>
      </trkpt>
      <trkpt lat="47.96573" lon="-0.72867">
        <ele>39</ele>
        <time>2024-04-19T16:57:52Z</time>
      </trkpt>
      <trkpt lat="47.96635" lon="-0.72785">
        <ele>38</ele>
        <time>2024-04-19T16:58:07Z</time>
      </trkpt>
      <trkpt lat="47.9668" lon="-0.72697">
        <ele>38</ele>
        <time>2024-04-19T16:58:20Z</time>
      </trkpt>
      <trkpt lat="47.96689" lon="-0.72673">
        <ele>38</ele>
        <time>2024-04-19T16:58:23Z</time>
      </trkpt>
      <trkpt lat="47.96718" lon="-0.72615">
        <ele>40</ele>
        <time>2024-04-19T16:58:32Z</time>
      </trkpt>
      <trkpt lat="47.96752" lon="-0.72503">
        <ele>37</ele>
        <time>2024-04-19T16:58:46Z</time>
      </trkpt>
      <trkpt lat="47.96774" lon="-0.72454">
        <ele>38</ele>
        <time>2024-04-19T16:58:53Z</time>
      </trkpt>
      <trkpt lat="47.96956" lon="-0.72154">
        <ele>39</ele>
        <time>2024-04-19T16:59:42Z</time>
      </trkpt>
      <trkpt lat="47.96996" lon="-0.72099">
        <ele>40</ele>
        <time>2024-04-19T16:59:51Z</time>
      </trkpt>
      <trkpt lat="47.97015" lon="-0.72089">
        <ele>41</ele>
        <time>2024-04-19T16:59:55Z</time>
      </trkpt>
      <trkpt lat="47.97027" lon="-0.72086">
        <ele>41</ele>
        <time>2024-04-19T16:59:57Z</time>
      </trkpt>
      <trkpt lat="47.97047" lon="-0.72086">
        <ele>40</ele>
        <time>2024-04-19T17:00:01Z</time>
      </trkpt>
      <trkpt lat="47.97059" lon="-0.72089">
        <ele>40</ele>
        <time>2024-04-19T17:00:03Z</time>
      </trkpt>
      <trkpt lat="47.97082" lon="-0.72102">
        <ele>40</ele>
        <time>2024-04-19T17:00:07Z</time>
      </trkpt>
      <trkpt lat="47.971" lon="-0.72124">
        <ele>41</ele>
        <time>2024-04-19T17:00:11Z</time>
      </trkpt>
      <trkpt lat="47.9711" lon="-0.72146">
        <ele>42</ele>
        <time>2024-04-19T17:00:14Z</time>
      </trkpt>
      <trkpt lat="47.97143" lon="-0.72253">
        <ele>38</ele>
        <time>2024-04-19T17:00:28Z</time>
      </trkpt>
      <trkpt lat="47.9717" lon="-0.72383">
        <ele>39</ele>
        <time>2024-04-19T17:00:45Z</time>
      </trkpt>
      <trkpt lat="47.9719" lon="-0.72441">
        <ele>39</ele>
        <time>2024-04-19T17:00:52Z</time>
      </trkpt>
      <trkpt lat="47.972" lon="-0.72462">
        <ele>38</ele>
        <time>2024-04-19T17:00:55Z</time>
      </trkpt>
      <trkpt lat="47.97218" lon="-0.72496">
        <ele>38</ele>
        <time>2024-04-19T17:01:01Z</time>
      </trkpt>
      <trkpt lat="47.97243" lon="-0.72531">
        <ele>38</ele>
        <time>2024-04-19T17:01:07Z</time>
      </trkpt>
      <trkpt lat="47.97279" lon="-0.72571">
        <ele>39</ele>
        <time>2024-04-19T17:01:15Z</time>
      </trkpt>
      <trkpt lat="47.97324" lon="-0.7261">
        <ele>39</ele>
        <time>2024-04-19T17:01:24Z</time>
      </trkpt>
      <trkpt lat="47.97339" lon="-0.72618">
        <ele>39</ele>
        <time>2024-04-19T17:01:27Z</time>
      </trkpt>
      <trkpt lat="47.97388" lon="-0.72633">
        <ele>38</ele>
        <time>2024-04-19T17:01:36Z</time>
      </trkpt>
      <trkpt lat="47.97446" lon="-0.72644">
        <ele>38</ele>
        <time>2024-04-19T17:01:46Z</time>
      </trkpt>
      <trkpt lat="47.97489" lon="-0.72646">
        <ele>39</ele>
        <time>2024-04-19T17:01:54Z</time>
      </trkpt>
      <trkpt lat="47.97534" lon="-0.72639">
        <ele>39</ele>
        <time>2024-04-19T17:02:02Z</time>
      </trkpt>
      <trkpt lat="47.97612" lon="-0.72614">
        <ele>40</ele>
        <time>2024-04-19T17:02:16Z</time>
      </trkpt>
      <trkpt lat="47.97634" lon="-0.72613">
        <ele>40</ele>
        <time>2024-04-19T17:02:20Z</time>
      </trkpt>
      <trkpt lat="47.97664" lon="-0.72624">
        <ele>40</ele>
        <time>2024-04-19T17:02:25Z</time>
      </trkpt>
      <trkpt lat="47.97704" lon="-0.72653">
        <ele>40</ele>
        <time>2024-04-19T17:02:33Z</time>
      </trkpt>
      <trkpt lat="47.97761" lon="-0.72687">
        <ele>42</ele>
        <time>2024-04-19T17:02:44Z</time>
      </trkpt>
      <trkpt lat="47.97858" lon="-0.72761">
        <ele>40</ele>
        <time>2024-04-19T17:03:04Z</time>
      </trkpt>
      <trkpt lat="47.97907" lon="-0.72814">
        <ele>40</ele>
        <time>2024-04-19T17:03:14Z</time>
      </trkpt>
      <trkpt lat="47.97965" lon="-0.72897">
        <ele>40</ele>
        <time>2024-04-19T17:03:29Z</time>
      </trkpt>
      <trkpt lat="47.97993" lon="-0.72927">
        <ele>40</ele>
        <time>2024-04-19T17:03:35Z</time>
      </trkpt>
      <trkpt lat="47.98027" lon="-0.72956">
        <ele>39</ele>
        <time>2024-04-19T17:03:42Z</time>
      </trkpt>
      <trkpt lat="47.9807" lon="-0.7298">
        <ele>38</ele>
        <time>2024-04-19T17:03:50Z</time>
      </trkpt>
      <trkpt lat="47.9812" lon="-0.72992">
        <ele>38</ele>
        <time>2024-04-19T17:03:59Z</time>
      </trkpt>
      <trkpt lat="47.98146" lon="-0.7299">
        <ele>37</ele>
        <time>2024-04-19T17:04:04Z</time>
      </trkpt>
      <trkpt lat="47.98176" lon="-0.72984">
        <ele>38</ele>
        <time>2024-04-19T17:04:09Z</time>
      </trkpt>
      <trkpt lat="47.98206" lon="-0.72974">
        <ele>39</ele>
        <time>2024-04-19T17:04:14Z</time>
      </trkpt>
      <trkpt lat="47.98246" lon="-0.72955">
        <ele>40</ele>
        <time>2024-04-19T17:04:22Z</time>
      </trkpt>
      <trkpt lat="47.98261" lon="-0.72945">
        <ele>40</ele>
        <time>2024-04-19T17:04:25Z</time>
      </trkpt>
      <trkpt lat="47.98274" lon="-0.72942">
        <ele>40</ele>
        <time>2024-04-19T17:04:27Z</time>
      </trkpt>
      <trkpt lat="47.98321" lon="-0.72905">
        <ele>39</ele>
        <time>2024-04-19T17:04:37Z</time>
      </trkpt>
      <trkpt lat="47.9833" lon="-0.72901">
        <ele>39</ele>
        <time>2024-04-19T17:04:38Z</time>
      </trkpt>
      <trkpt lat="47.9834" lon="-0.72903">
        <ele>39</ele>
        <time>2024-04-19T17:04:40Z</time>
      </trkpt>
      <trkpt lat="47.9836" lon="-0.7292">
        <ele>39</ele>
        <time>2024-04-19T17:04:44Z</time>
      </trkpt>
      <trkpt lat="47.98383" lon="-0.72953">
        <ele>40</ele>
        <time>2024-04-19T17:04:50Z</time>
      </trkpt>
      <trkpt lat="47.98408" lon="-0.73004">
        <ele>40</ele>
        <time>2024-04-19T17:04:57Z</time>
      </trkpt>
      <trkpt lat="47.98431" lon="-0.73043">
        <ele>40</ele>
        <time>2024-04-19T17:05:04Z</time>
      </trkpt>
      <trkpt lat="47.9847" lon="-0.73124">
        <ele>41</ele>
        <time>2024-04-19T17:05:15Z</time>
      </trkpt>
      <trkpt lat="47.98532" lon="-0.73263">
        <ele>39</ele>
        <time>2024-04-19T17:05:35Z</time>
      </trkpt>
      <trkpt lat="47.98562" lon="-0.7335">
        <ele>40</ele>
        <time>2024-04-19T17:05:47Z</time>
      </trkpt>
      <trkpt lat="47.98569" lon="-0.73381">
        <ele>42</ele>
        <time>2024-04-19T17:05:51Z</time>
      </trkpt>
      <trkpt lat="47.98584" lon="-0.73489">
        <ele>47</ele>
        <time>2024-04-19T17:06:04Z</time>
      </trkpt>
      <trkpt lat="47.98585" lon="-0.73522">
        <ele>48</ele>
        <time>2024-04-19T17:06:08Z</time>
      </trkpt>
      <trkpt lat="47.98578" lon="-0.73579">
        <ele>51</ele>
        <time>2024-04-19T17:06:15Z</time>
      </trkpt>
      <trkpt lat="47.98579" lon="-0.73588">
        <ele>51</ele>
        <time>2024-04-19T17:06:16Z</time>
      </trkpt>
      <trkpt lat="47.98571" lon="-0.73616">
        <ele>50</ele>
        <time>2024-04-19T17:06:20Z</time>
      </trkpt>
      <trkpt lat="47.98561" lon="-0.73633">
        <ele>51</ele>
        <time>2024-04-19T17:06:22Z</time>
      </trkpt>
      <trkpt lat="47.98525" lon="-0.73666">
        <ele>56</ele>
        <time>2024-04-19T17:06:30Z</time>
      </trkpt>
      <trkpt lat="47.98518" lon="-0.73677">
        <ele>57</ele>
        <time>2024-04-19T17:06:32Z</time>
      </trkpt>
      <trkpt lat="47.98501" lon="-0.7375">
        <ele>56</ele>
        <time>2024-04-19T17:06:41Z</time>
      </trkpt>
      <trkpt lat="47.98502" lon="-0.73767">
        <ele>58</ele>
        <time>2024-04-19T17:06:43Z</time>
      </trkpt>
      <trkpt lat="47.98509" lon="-0.73795">
        <ele>59</ele>
        <time>2024-04-19T17:06:46Z</time>
      </trkpt>
      <trkpt lat="47.98542" lon="-0.73851">
        <ele>56</ele>
        <time>2024-04-19T17:06:55Z</time>
      </trkpt>
      <trkpt lat="47.98551" lon="-0.73874">
        <ele>56</ele>
        <time>2024-04-19T17:06:58Z</time>
      </trkpt>
      <trkpt lat="47.9856" lon="-0.73911">
        <ele>58</ele>
        <time>2024-04-19T17:07:03Z</time>
      </trkpt>
      <trkpt lat="47.98576" lon="-0.73951">
        <ele>59</ele>
        <time>2024-04-19T17:07:09Z</time>
      </trkpt>
      <trkpt lat="47.98615" lon="-0.73992">
        <ele>55</ele>
        <time>2024-04-19T17:07:17Z</time>
      </trkpt>
      <trkpt lat="47.98639" lon="-0.74009">
        <ele>50</ele>
        <time>2024-04-19T17:07:22Z</time>
      </trkpt>
      <trkpt lat="47.98717" lon="-0.74047">
        <ele>45</ele>
        <time>2024-04-19T17:07:36Z</time>
      </trkpt>
      <trkpt lat="47.98737" lon="-0.7406">
        <ele>43</ele>
        <time>2024-04-19T17:07:40Z</time>
      </trkpt>
      <trkpt lat="47.98763" lon="-0.74068">
        <ele>42</ele>
        <time>2024-04-19T17:07:45Z</time>
      </trkpt>
      <trkpt lat="47.9886" lon="-0.7411">
        <ele>43</ele>
        <time>2024-04-19T17:08:03Z</time>
      </trkpt>
      <trkpt lat="47.99009" lon="-0.74185">
        <ele>54</ele>
        <time>2024-04-19T17:08:31Z</time>
      </trkpt>
      <trkpt lat="47.99078" lon="-0.74226">
        <ele>54</ele>
        <time>2024-04-19T17:08:44Z</time>
      </trkpt>
      <trkpt lat="47.99119" lon="-0.74242">
        <ele>52</ele>
        <time>2024-04-19T17:08:52Z</time>
      </trkpt>
      <trkpt lat="47.99131" lon="-0.74249">
        <ele>51</ele>
        <time>2024-04-19T17:08:54Z</time>
      </trkpt>
      <trkpt lat="47.99177" lon="-0.74288">
        <ele>52</ele>
        <time>2024-04-19T17:09:04Z</time>
      </trkpt>
      <trkpt lat="47.99232" lon="-0.74296">
        <ele>46</ele>
        <time>2024-04-19T17:09:13Z</time>
      </trkpt>
      <trkpt lat="47.99309" lon="-0.74285">
        <ele>41</ele>
        <time>2024-04-19T17:09:27Z</time>
      </trkpt>
      <trkpt lat="47.99394" lon="-0.74256">
        <ele>40</ele>
        <time>2024-04-19T17:09:43Z</time>
      </trkpt>
      <trkpt lat="47.99455" lon="-0.74228">
        <ele>39</ele>
        <time>2024-04-19T17:09:54Z</time>
      </trkpt>
      <trkpt lat="47.99531" lon="-0.74197">
        <ele>39</ele>
        <time>2024-04-19T17:10:08Z</time>
      </trkpt>
      <trkpt lat="47.99623" lon="-0.74167">
        <ele>40</ele>
        <time>2024-04-19T17:10:25Z</time>
      </trkpt>
      <trkpt lat="47.99643" lon="-0.74165">
        <ele>42</ele>
        <time>2024-04-19T17:10:28Z</time>
      </trkpt>
      <trkpt lat="47.99662" lon="-0.7417">
        <ele>43</ele>
        <time>2024-04-19T17:10:32Z</time>
      </trkpt>
      <trkpt lat="47.99667" lon="-0.74176">
        <ele>43</ele>
        <time>2024-04-19T17:10:33Z</time>
      </trkpt>
      <trkpt lat="47.99676" lon="-0.74279">
        <ele>48</ele>
        <time>2024-04-19T17:10:45Z</time>
      </trkpt>
      <trkpt lat="47.99679" lon="-0.74287">
        <ele>49</ele>
        <time>2024-04-19T17:10:46Z</time>
      </trkpt>
      <trkpt lat="47.99684" lon="-0.74289">
        <ele>49</ele>
        <time>2024-04-19T17:10:47Z</time>
      </trkpt>
      <trkpt lat="47.99687" lon="-0.74285">
        <ele>49</ele>
        <time>2024-04-19T17:10:48Z</time>
      </trkpt>
      <trkpt lat="47.99684" lon="-0.74226">
        <ele>46</ele>
        <time>2024-04-19T17:10:55Z</time>
      </trkpt>
      <trkpt lat="47.99666" lon="-0.74074">
        <ele>42</ele>
        <time>2024-04-19T17:11:13Z</time>
      </trkpt>
      <trkpt lat="47.9965" lon="-0.7398">
        <ele>46</ele>
        <time>2024-04-19T17:11:25Z</time>
      </trkpt>
      <trkpt lat="47.9964" lon="-0.7389">
        <ele>48</ele>
        <time>2024-04-19T17:11:36Z</time>
      </trkpt>
      <trkpt lat="47.99628" lon="-0.73874">
        <ele>48</ele>
        <time>2024-04-19T17:11:39Z</time>
      </trkpt>
      <trkpt lat="47.99628" lon="-0.73862">
        <ele>48</ele>
        <time>2024-04-19T17:11:40Z</time>
      </trkpt>
      <trkpt lat="47.99642" lon="-0.7384">
        <ele>48</ele>
        <time>2024-04-19T17:11:44Z</time>
      </trkpt>
      <trkpt lat="47.99658" lon="-0.738">
        <ele>51</ele>
        <time>2024-04-19T17:11:49Z</time>
      </trkpt>
      <trkpt lat="47.99676" lon="-0.73766">
        <ele>53</ele>
        <time>2024-04-19T17:11:54Z</time>
      </trkpt>
      <trkpt lat="47.99735" lon="-0.73662">
        <ele>59</ele>
        <time>2024-04-19T17:12:11Z</time>
      </trkpt>
      <trkpt lat="47.99769" lon="-0.73606">
        <ele>62</ele>
        <time>2024-04-19T17:12:20Z</time>
      </trkpt>
      <trkpt lat="47.99817" lon="-0.73535">
        <ele>65</ele>
        <time>2024-04-19T17:12:32Z</time>
      </trkpt>
      <trkpt lat="47.99843" lon="-0.7348">
        <ele>68</ele>
        <time>2024-04-19T17:12:40Z</time>
      </trkpt>
      <trkpt lat="47.99863" lon="-0.73425">
        <ele>69</ele>
        <time>2024-04-19T17:12:47Z</time>
      </trkpt>
      <trkpt lat="47.99866" lon="-0.73422">
        <ele>69</ele>
        <time>2024-04-19T17:12:48Z</time>
      </trkpt>
      <trkpt lat="47.99873" lon="-0.73421">
        <ele>68</ele>
        <time>2024-04-19T17:12:49Z</time>
      </trkpt>
      <trkpt lat="47.99891" lon="-0.73424">
        <ele>68</ele>
        <time>2024-04-19T17:12:52Z</time>
      </trkpt>
      <trkpt lat="47.99925" lon="-0.73424">
        <ele>68</ele>
        <time>2024-04-19T17:12:58Z</time>
      </trkpt>
      <trkpt lat="48.00017" lon="-0.73419">
        <ele>71</ele>
        <time>2024-04-19T17:13:15Z</time>
      </trkpt>
      <trkpt lat="48.00071" lon="-0.73411">
        <ele>72</ele>
        <time>2024-04-19T17:13:24Z</time>
      </trkpt>
      <trkpt lat="48.00093" lon="-0.73406">
        <ele>72</ele>
        <time>2024-04-19T17:13:28Z</time>
      </trkpt>
      <trkpt lat="48.00104" lon="-0.73401">
        <ele>72</ele>
        <time>2024-04-19T17:13:30Z</time>
      </trkpt>
      <trkpt lat="48.00122" lon="-0.7339">
        <ele>73</ele>
        <time>2024-04-19T17:13:34Z</time>
      </trkpt>
      <trkpt lat="48.00153" lon="-0.73354">
        <ele>75</ele>
        <time>2024-04-19T17:13:41Z</time>
      </trkpt>
      <trkpt lat="48.00171" lon="-0.73339">
        <ele>76</ele>
        <time>2024-04-19T17:13:44Z</time>
      </trkpt>
      <trkpt lat="48.00194" lon="-0.73333">
        <ele>76</ele>
        <time>2024-04-19T17:13:49Z</time>
      </trkpt>
      <trkpt lat="48.00207" lon="-0.73326">
        <ele>76</ele>
        <time>2024-04-19T17:13:51Z</time>
      </trkpt>
      <trkpt lat="48.00316" lon="-0.7321">
        <ele>82</ele>
        <time>2024-04-19T17:14:15Z</time>
      </trkpt>
      <trkpt lat="48.00336" lon="-0.73194">
        <ele>83</ele>
        <time>2024-04-19T17:14:19Z</time>
      </trkpt>
      <trkpt lat="48.00354" lon="-0.73183">
        <ele>84</ele>
        <time>2024-04-19T17:14:22Z</time>
      </trkpt>
      <trkpt lat="48.00477" lon="-0.73128">
        <ele>88</ele>
        <time>2024-04-19T17:14:45Z</time>
      </trkpt>
      <trkpt lat="48.00576" lon="-0.73059">
        <ele>90</ele>
        <time>2024-04-19T17:15:05Z</time>
      </trkpt>
      <trkpt lat="48.00598" lon="-0.73046">
        <ele>90</ele>
        <time>2024-04-19T17:15:09Z</time>
      </trkpt>
      <trkpt lat="48.00613" lon="-0.73043">
        <ele>90</ele>
        <time>2024-04-19T17:15:12Z</time>
      </trkpt>
      <trkpt lat="48.00701" lon="-0.7304">
        <ele>89</ele>
        <time>2024-04-19T17:15:27Z</time>
      </trkpt>
      <trkpt lat="48.00789" lon="-0.73051">
        <ele>87</ele>
        <time>2024-04-19T17:15:43Z</time>
      </trkpt>
      <trkpt lat="48.00931" lon="-0.73062">
        <ele>89</ele>
        <time>2024-04-19T17:16:08Z</time>
      </trkpt>
      <trkpt lat="48.00937" lon="-0.73056">
        <ele>89</ele>
        <time>2024-04-19T17:16:10Z</time>
      </trkpt>
      <trkpt lat="48.00939" lon="-0.73032">
        <ele>90</ele>
        <time>2024-04-19T17:16:12Z</time>
      </trkpt>
      <trkpt lat="48.00942" lon="-0.72893">
        <ele>91</ele>
        <time>2024-04-19T17:16:29Z</time>
      </trkpt>
      <trkpt lat="48.00947" lon="-0.7288">
        <ele>91</ele>
        <time>2024-04-19T17:16:31Z</time>
      </trkpt>
      <trkpt lat="48.00958" lon="-0.7287">
        <ele>91</ele>
        <time>2024-04-19T17:16:33Z</time>
      </trkpt>
      <trkpt lat="48.00992" lon="-0.72878">
        <ele>91</ele>
        <time>2024-04-19T17:16:39Z</time>
      </trkpt>
      <trkpt lat="48.00989" lon="-0.73018">
        <ele>91</ele>
        <time>2024-04-19T17:16:56Z</time>
      </trkpt>
      <trkpt lat="48.00995" lon="-0.73047">
        <ele>91</ele>
        <time>2024-04-19T17:16:59Z</time>
      </trkpt>
      <trkpt lat="48.01007" lon="-0.73084">
        <ele>91</ele>
        <time>2024-04-19T17:17:04Z</time>
      </trkpt>
      <trkpt lat="48.01006" lon="-0.73108">
        <ele>91</ele>
        <time>2024-04-19T17:17:07Z</time>
      </trkpt>
      <trkpt lat="48.00994" lon="-0.73135">
        <ele>90</ele>
        <time>2024-04-19T17:17:11Z</time>
      </trkpt>
      <trkpt lat="48.00977" lon="-0.73165">
        <ele>90</ele>
        <time>2024-04-19T17:17:16Z</time>
      </trkpt>
      <trkpt lat="48.00979" lon="-0.73194">
        <ele>90</ele>
        <time>2024-04-19T17:17:19Z</time>
      </trkpt>
      <trkpt lat="48.01043" lon="-0.73223">
        <ele>88</ele>
        <time>2024-04-19T17:17:31Z</time>
      </trkpt>
      <trkpt lat="48.01125" lon="-0.73276">
        <ele>84</ele>
        <time>2024-04-19T17:17:47Z</time>
      </trkpt>
      <trkpt lat="48.0118" lon="-0.73328">
        <ele>80</ele>
        <time>2024-04-19T17:17:59Z</time>
      </trkpt>
      <trkpt lat="48.01183" lon="-0.73381">
        <ele>77</ele>
        <time>2024-04-19T17:18:05Z</time>
      </trkpt>
      <trkpt lat="48.01168" lon="-0.73454">
        <ele>74</ele>
        <time>2024-04-19T17:18:14Z</time>
      </trkpt>
      <trkpt lat="48.01206" lon="-0.73513">
        <ele>74</ele>
        <time>2024-04-19T17:18:24Z</time>
      </trkpt>
      <trkpt lat="48.01221" lon="-0.73582">
        <ele>76</ele>
        <time>2024-04-19T17:18:32Z</time>
      </trkpt>
      <trkpt lat="48.01249" lon="-0.73568">
        <ele>78</ele>
        <time>2024-04-19T17:18:38Z</time>
      </trkpt>
      <trkpt lat="48.01316" lon="-0.73565">
        <ele>80</ele>
        <time>2024-04-19T17:18:50Z</time>
      </trkpt>
      <trkpt lat="48.01349" lon="-0.7357">
        <ele>81</ele>
        <time>2024-04-19T17:18:55Z</time>
      </trkpt>
      <trkpt lat="48.01395" lon="-0.73563">
        <ele>82</ele>
        <time>2024-04-19T17:19:04Z</time>
      </trkpt>
      <trkpt lat="48.01456" lon="-0.73499">
        <ele>85</ele>
        <time>2024-04-19T17:19:17Z</time>
      </trkpt>
      <trkpt lat="48.01488" lon="-0.73447">
        <ele>87</ele>
        <time>2024-04-19T17:19:25Z</time>
      </trkpt>
      <trkpt lat="48.01509" lon="-0.73398">
        <ele>88</ele>
        <time>2024-04-19T17:19:32Z</time>
      </trkpt>
      <trkpt lat="48.01558" lon="-0.73379">
        <ele>88</ele>
        <time>2024-04-19T17:19:41Z</time>
      </trkpt>
      <trkpt lat="48.01626" lon="-0.73336">
        <ele>86</ele>
        <time>2024-04-19T17:19:54Z</time>
      </trkpt>
      <trkpt lat="48.01804" lon="-0.73235">
        <ele>83</ele>
        <time>2024-04-19T17:20:28Z</time>
      </trkpt>
      <trkpt lat="48.01893" lon="-0.73178">
        <ele>83</ele>
        <time>2024-04-19T17:20:46Z</time>
      </trkpt>
      <trkpt lat="48.02029" lon="-0.73233">
        <ele>85</ele>
        <time>2024-04-19T17:21:11Z</time>
      </trkpt>
      <trkpt lat="48.02159" lon="-0.73293">
        <ele>87</ele>
        <time>2024-04-19T17:21:35Z</time>
      </trkpt>
      <trkpt lat="48.02215" lon="-0.73316">
        <ele>88</ele>
        <time>2024-04-19T17:21:45Z</time>
      </trkpt>
      <trkpt lat="48.02328" lon="-0.73371">
        <ele>88</ele>
        <time>2024-04-19T17:22:06Z</time>
      </trkpt>
      <trkpt lat="48.02393" lon="-0.73401">
        <ele>91</ele>
        <time>2024-04-19T17:22:18Z</time>
      </trkpt>
      <trkpt lat="48.02471" lon="-0.73433">
        <ele>92</ele>
        <time>2024-04-19T17:22:33Z</time>
      </trkpt>
      <trkpt lat="48.02702" lon="-0.73541">
        <ele>97</ele>
        <time>2024-04-19T17:23:16Z</time>
      </trkpt>
      <trkpt lat="48.02709" lon="-0.7354">
        <ele>97</ele>
        <time>2024-04-19T17:23:17Z</time>
      </trkpt>
      <trkpt lat="48.02712" lon="-0.73537">
        <ele>97</ele>
        <time>2024-04-19T17:23:18Z</time>
      </trkpt>
      <trkpt lat="48.02716" lon="-0.73525">
        <ele>97</ele>
        <time>2024-04-19T17:23:19Z</time>
      </trkpt>
      <trkpt lat="48.02719" lon="-0.73473">
        <ele>97</ele>
        <time>2024-04-19T17:23:26Z</time>
      </trkpt>
      <trkpt lat="48.02753" lon="-0.73209">
        <ele>94</ele>
        <time>2024-04-19T17:23:58Z</time>
      </trkpt>
      <trkpt lat="48.02757" lon="-0.73135">
        <ele>92</ele>
        <time>2024-04-19T17:24:06Z</time>
      </trkpt>
      <trkpt lat="48.02758" lon="-0.7297">
        <ele>89</ele>
        <time>2024-04-19T17:24:26Z</time>
      </trkpt>
      <trkpt lat="48.02761" lon="-0.72923">
        <ele>88</ele>
        <time>2024-04-19T17:24:32Z</time>
      </trkpt>
      <trkpt lat="48.02767" lon="-0.72893">
        <ele>87</ele>
        <time>2024-04-19T17:24:35Z</time>
      </trkpt>
      <trkpt lat="48.0279" lon="-0.72828">
        <ele>84</ele>
        <time>2024-04-19T17:24:44Z</time>
      </trkpt>
      <trkpt lat="48.02792" lon="-0.72812">
        <ele>83</ele>
        <time>2024-04-19T17:24:46Z</time>
      </trkpt>
      <trkpt lat="48.02779" lon="-0.72713">
        <ele>79</ele>
        <time>2024-04-19T17:24:58Z</time>
      </trkpt>
      <trkpt lat="48.02779" lon="-0.72582">
        <ele>77</ele>
        <time>2024-04-19T17:25:14Z</time>
      </trkpt>
      <trkpt lat="48.02773" lon="-0.72467">
        <ele>76</ele>
        <time>2024-04-19T17:25:27Z</time>
      </trkpt>
      <trkpt lat="48.02762" lon="-0.72386">
        <ele>74</ele>
        <time>2024-04-19T17:25:37Z</time>
      </trkpt>
      <trkpt lat="48.02747" lon="-0.72324">
        <ele>73</ele>
        <time>2024-04-19T17:25:45Z</time>
      </trkpt>
      <trkpt lat="48.02722" lon="-0.72261">
        <ele>74</ele>
        <time>2024-04-19T17:25:54Z</time>
      </trkpt>
      <trkpt lat="48.02615" lon="-0.72027">
        <ele>75</ele>
        <time>2024-04-19T17:26:27Z</time>
      </trkpt>
      <trkpt lat="48.02601" lon="-0.71986">
        <ele>76</ele>
        <time>2024-04-19T17:26:33Z</time>
      </trkpt>
      <trkpt lat="48.02553" lon="-0.7175">
        <ele>77</ele>
        <time>2024-04-19T17:27:02Z</time>
      </trkpt>
      <trkpt lat="48.02515" lon="-0.71594">
        <ele>76</ele>
        <time>2024-04-19T17:27:22Z</time>
      </trkpt>
      <trkpt lat="48.02513" lon="-0.71572">
        <ele>75</ele>
        <time>2024-04-19T17:27:25Z</time>
      </trkpt>
      <trkpt lat="48.02516" lon="-0.71564">
        <ele>74</ele>
        <time>2024-04-19T17:27:26Z</time>
      </trkpt>
      <trkpt lat="48.02519" lon="-0.71563">
        <ele>74</ele>
        <time>2024-04-19T17:27:26Z</time>
      </trkpt>
      <trkpt lat="48.02525" lon="-0.71566">
        <ele>74</ele>
        <time>2024-04-19T17:27:27Z</time>
      </trkpt>
      <trkpt lat="48.02589" lon="-0.71642">
        <ele>74</ele>
        <time>2024-04-19T17:27:42Z</time>
      </trkpt>
      <trkpt lat="48.02603" lon="-0.71663">
        <ele>74</ele>
        <time>2024-04-19T17:27:46Z</time>
      </trkpt>
      <trkpt lat="48.02622" lon="-0.7168">
        <ele>74</ele>
        <time>2024-04-19T17:27:49Z</time>
      </trkpt>
      <trkpt lat="48.02641" lon="-0.71675">
        <ele>73</ele>
        <time>2024-04-19T17:27:53Z</time>
      </trkpt>
      <trkpt lat="48.02718" lon="-0.71611">
        <ele>69</ele>
        <time>2024-04-19T17:28:09Z</time>
      </trkpt>
      <trkpt lat="48.02728" lon="-0.71612">
        <ele>69</ele>
        <time>2024-04-19T17:28:10Z</time>
      </trkpt>
      <trkpt lat="48.02756" lon="-0.71609">
        <ele>69</ele>
        <time>2024-04-19T17:28:15Z</time>
      </trkpt>
      <trkpt lat="48.02761" lon="-0.71604">
        <ele>69</ele>
        <time>2024-04-19T17:28:16Z</time>
      </trkpt>
      <trkpt lat="48.02762" lon="-0.71591">
        <ele>69</ele>
        <time>2024-04-19T17:28:18Z</time>
      </trkpt>
      <trkpt lat="48.02757" lon="-0.71585">
        <ele>68</ele>
        <time>2024-04-19T17:28:19Z</time>
      </trkpt>
      <trkpt lat="48.02747" lon="-0.71581">
        <ele>68</ele>
        <time>2024-04-19T17:28:21Z</time>
      </trkpt>
      <trkpt lat="48.02739" lon="-0.71585">
        <ele>68</ele>
        <time>2024-04-19T17:28:22Z</time>
      </trkpt>
      <trkpt lat="48.02722" lon="-0.71568">
        <ele>68</ele>
        <time>2024-04-19T17:28:26Z</time>
      </trkpt>
      <trkpt lat="48.02714" lon="-0.71563">
        <ele>68</ele>
        <time>2024-04-19T17:28:28Z</time>
      </trkpt>
      <trkpt lat="48.02701" lon="-0.71548">
        <ele>67</ele>
        <time>2024-04-19T17:28:31Z</time>
      </trkpt>
      <trkpt lat="48.02685" lon="-0.71525">
        <ele>66</ele>
        <time>2024-04-19T17:28:35Z</time>
      </trkpt>
      <trkpt lat="48.02679" lon="-0.71511">
        <ele>66</ele>
        <time>2024-04-19T17:28:37Z</time>
      </trkpt>
      <trkpt lat="48.02666" lon="-0.71504">
        <ele>65</ele>
        <time>2024-04-19T17:28:39Z</time>
      </trkpt>
      <trkpt lat="48.02662" lon="-0.71491">
        <ele>65</ele>
        <time>2024-04-19T17:28:41Z</time>
      </trkpt>
      <trkpt lat="48.02648" lon="-0.71469">
        <ele>65</ele>
        <time>2024-04-19T17:28:44Z</time>
      </trkpt>
      <trkpt lat="48.02647" lon="-0.71458">
        <ele>65</ele>
        <time>2024-04-19T17:28:46Z</time>
      </trkpt>
      <trkpt lat="48.02654" lon="-0.71444">
        <ele>64</ele>
        <time>2024-04-19T17:28:48Z</time>
      </trkpt>
      <trkpt lat="48.02662" lon="-0.71441">
        <ele>64</ele>
        <time>2024-04-19T17:28:49Z</time>
      </trkpt>
      <trkpt lat="48.02655" lon="-0.71419">
        <ele>64</ele>
        <time>2024-04-19T17:28:52Z</time>
      </trkpt>
      <trkpt lat="48.02644" lon="-0.714">
        <ele>63</ele>
        <time>2024-04-19T17:28:55Z</time>
      </trkpt>
      <trkpt lat="48.0264" lon="-0.71383">
        <ele>63</ele>
        <time>2024-04-19T17:28:57Z</time>
      </trkpt>
      <trkpt lat="48.0263" lon="-0.71368">
        <ele>62</ele>
        <time>2024-04-19T17:29:00Z</time>
      </trkpt>
      <trkpt lat="48.02617" lon="-0.71328">
        <ele>59</ele>
        <time>2024-04-19T17:29:05Z</time>
      </trkpt>
      <trkpt lat="48.02618" lon="-0.71317">
        <ele>59</ele>
        <time>2024-04-19T17:29:06Z</time>
      </trkpt>
      <trkpt lat="48.02616" lon="-0.71307">
        <ele>58</ele>
        <time>2024-04-19T17:29:08Z</time>
      </trkpt>
      <trkpt lat="48.0262" lon="-0.71284">
        <ele>57</ele>
        <time>2024-04-19T17:29:10Z</time>
      </trkpt>
      <trkpt lat="48.02624" lon="-0.71282">
        <ele>57</ele>
        <time>2024-04-19T17:29:11Z</time>
      </trkpt>
      <trkpt lat="48.02636" lon="-0.71302">
        <ele>59</ele>
        <time>2024-04-19T17:29:14Z</time>
      </trkpt>
      <trkpt lat="48.02648" lon="-0.71314">
        <ele>61</ele>
        <time>2024-04-19T17:29:17Z</time>
      </trkpt>
      <trkpt lat="48.02648" lon="-0.71291">
        <ele>59</ele>
        <time>2024-04-19T17:29:20Z</time>
      </trkpt>
      <trkpt lat="48.02651" lon="-0.7128">
        <ele>58</ele>
        <time>2024-04-19T17:29:21Z</time>
      </trkpt>
      <trkpt lat="48.02657" lon="-0.71275">
        <ele>58</ele>
        <time>2024-04-19T17:29:22Z</time>
      </trkpt>
      <trkpt lat="48.02661" lon="-0.71277">
        <ele>59</ele>
        <time>2024-04-19T17:29:23Z</time>
      </trkpt>
      <trkpt lat="48.0267" lon="-0.71291">
        <ele>60</ele>
        <time>2024-04-19T17:29:25Z</time>
      </trkpt>
      <trkpt lat="48.02677" lon="-0.71288">
        <ele>60</ele>
        <time>2024-04-19T17:29:27Z</time>
      </trkpt>
      <trkpt lat="48.02685" lon="-0.71293">
        <ele>60</ele>
        <time>2024-04-19T17:29:28Z</time>
      </trkpt>
      <trkpt lat="48.02705" lon="-0.71322">
        <ele>62</ele>
        <time>2024-04-19T17:29:33Z</time>
      </trkpt>
      <trkpt lat="48.02712" lon="-0.71324">
        <ele>62</ele>
        <time>2024-04-19T17:29:34Z</time>
      </trkpt>
      <trkpt lat="48.02724" lon="-0.71322">
        <ele>62</ele>
        <time>2024-04-19T17:29:37Z</time>
      </trkpt>
      <trkpt lat="48.02773" lon="-0.71353">
        <ele>62</ele>
        <time>2024-04-19T17:29:46Z</time>
      </trkpt>
      <trkpt lat="48.02816" lon="-0.71399">
        <ele>62</ele>
        <time>2024-04-19T17:29:55Z</time>
      </trkpt>
      <trkpt lat="48.02822" lon="-0.71412">
        <ele>63</ele>
        <time>2024-04-19T17:29:57Z</time>
      </trkpt>
      <trkpt lat="48.02858" lon="-0.71453">
        <ele>63</ele>
        <time>2024-04-19T17:30:05Z</time>
      </trkpt>
      <trkpt lat="48.02869" lon="-0.71475">
        <ele>65</ele>
        <time>2024-04-19T17:30:09Z</time>
      </trkpt>
      <trkpt lat="48.02905" lon="-0.71504">
        <ele>65</ele>
        <time>2024-04-19T17:30:16Z</time>
      </trkpt>
      <trkpt lat="48.02939" lon="-0.71517">
        <ele>64</ele>
        <time>2024-04-19T17:30:22Z</time>
      </trkpt>
      <trkpt lat="48.02956" lon="-0.71529">
        <ele>64</ele>
        <time>2024-04-19T17:30:26Z</time>
      </trkpt>
      <trkpt lat="48.02989" lon="-0.71538">
        <ele>63</ele>
        <time>2024-04-19T17:30:31Z</time>
      </trkpt>
      <trkpt lat="48.0302" lon="-0.71528">
        <ele>61</ele>
        <time>2024-04-19T17:30:37Z</time>
      </trkpt>
      <trkpt lat="48.03045" lon="-0.71523">
        <ele>62</ele>
        <time>2024-04-19T17:30:42Z</time>
      </trkpt>
      <trkpt lat="48.03063" lon="-0.71513">
        <ele>62</ele>
        <time>2024-04-19T17:30:45Z</time>
      </trkpt>
      <trkpt lat="48.03071" lon="-0.71505">
        <ele>62</ele>
        <time>2024-04-19T17:30:47Z</time>
      </trkpt>
      <trkpt lat="48.03088" lon="-0.71487">
        <ele>61</ele>
        <time>2024-04-19T17:30:50Z</time>
      </trkpt>
      <trkpt lat="48.03125" lon="-0.71439">
        <ele>59</ele>
        <time>2024-04-19T17:30:59Z</time>
      </trkpt>
      <trkpt lat="48.03142" lon="-0.71424">
        <ele>59</ele>
        <time>2024-04-19T17:31:03Z</time>
      </trkpt>
      <trkpt lat="48.03177" lon="-0.71365">
        <ele>59</ele>
        <time>2024-04-19T17:31:12Z</time>
      </trkpt>
      <trkpt lat="48.03187" lon="-0.71333">
        <ele>58</ele>
        <time>2024-04-19T17:31:16Z</time>
      </trkpt>
      <trkpt lat="48.03239" lon="-0.71251">
        <ele>58</ele>
        <time>2024-04-19T17:31:30Z</time>
      </trkpt>
      <trkpt lat="48.03259" lon="-0.71225">
        <ele>59</ele>
        <time>2024-04-19T17:31:34Z</time>
      </trkpt>
      <trkpt lat="48.0327" lon="-0.71205">
        <ele>60</ele>
        <time>2024-04-19T17:31:37Z</time>
      </trkpt>
      <trkpt lat="48.03319" lon="-0.71159">
        <ele>61</ele>
        <time>2024-04-19T17:31:48Z</time>
      </trkpt>
      <trkpt lat="48.03343" lon="-0.71144">
        <ele>62</ele>
        <time>2024-04-19T17:31:52Z</time>
      </trkpt>
      <trkpt lat="48.03356" lon="-0.71121">
        <ele>60</ele>
        <time>2024-04-19T17:31:56Z</time>
      </trkpt>
      <trkpt lat="48.03366" lon="-0.7111">
        <ele>60</ele>
        <time>2024-04-19T17:31:58Z</time>
      </trkpt>
      <trkpt lat="48.03379" lon="-0.71103">
        <ele>60</ele>
        <time>2024-04-19T17:32:01Z</time>
      </trkpt>
      <trkpt lat="48.03393" lon="-0.711">
        <ele>61</ele>
        <time>2024-04-19T17:32:03Z</time>
      </trkpt>
      <trkpt lat="48.03404" lon="-0.71089">
        <ele>61</ele>
        <time>2024-04-19T17:32:06Z</time>
      </trkpt>
      <trkpt lat="48.03412" lon="-0.71073">
        <ele>60</ele>
        <time>2024-04-19T17:32:08Z</time>
      </trkpt>
      <trkpt lat="48.03434" lon="-0.7097">
        <ele>57</ele>
        <time>2024-04-19T17:32:21Z</time>
      </trkpt>
      <trkpt lat="48.03453" lon="-0.70904">
        <ele>54</ele>
        <time>2024-04-19T17:32:29Z</time>
      </trkpt>
      <trkpt lat="48.03469" lon="-0.70837">
        <ele>53</ele>
        <time>2024-04-19T17:32:38Z</time>
      </trkpt>
      <trkpt lat="48.03473" lon="-0.7081">
        <ele>54</ele>
        <time>2024-04-19T17:32:41Z</time>
      </trkpt>
      <trkpt lat="48.03477" lon="-0.70746">
        <ele>55</ele>
        <time>2024-04-19T17:32:49Z</time>
      </trkpt>
      <trkpt lat="48.03474" lon="-0.70733">
        <ele>55</ele>
        <time>2024-04-19T17:32:50Z</time>
      </trkpt>
      <trkpt lat="48.03462" lon="-0.7071">
        <ele>55</ele>
        <time>2024-04-19T17:32:54Z</time>
      </trkpt>
      <trkpt lat="48.03445" lon="-0.70666">
        <ele>55</ele>
        <time>2024-04-19T17:33:00Z</time>
      </trkpt>
      <trkpt lat="48.03417" lon="-0.70604">
        <ele>52</ele>
        <time>2024-04-19T17:33:09Z</time>
      </trkpt>
      <trkpt lat="48.03365" lon="-0.70513">
        <ele>54</ele>
        <time>2024-04-19T17:33:23Z</time>
      </trkpt>
      <trkpt lat="48.03351" lon="-0.70481">
        <ele>54</ele>
        <time>2024-04-19T17:33:28Z</time>
      </trkpt>
      <trkpt lat="48.03357" lon="-0.7047">
        <ele>54</ele>
        <time>2024-04-19T17:33:29Z</time>
      </trkpt>
    </trkseg>
  </trk>
</gpx>